<?xml version="1.0" encoding="UTF-8" standalone="no" ?>
<gpx xmlns="http://www.topografix.com/GPX/1/1" xmlns:xsi="http://www.w3.org/2001/XMLSchema-instance" xsi:schemaLocation="http://www.topografix.com/GPX/1/1 http://www.topografix.com/GPX/1/1/gpx.xsd" version="1.1" creator="VisuGPX - https://www.visugpx.com">
  <metadata>
    <name>riverie mm jean-françois 02-05-2019</name>
    <desc><![CDATA[Rando Ramml Moyenne Marche Jean-François 02-05-20169]]></desc>
  </metadata>
  <trk>
    <name><![CDATA[22 avr. 2019 à 09:14:57]]></name>
    <cmt><![CDATA[22 avr. 2019 à 09:14:57]]></cmt>
    <trkseg>
      <trkpt lat="45.60081" lon="4.588">
        <ele>709</ele>
        <time>2019-04-22T07:14:58Z</time>
      </trkpt>
      <trkpt lat="45.60081" lon="4.588">
        <ele>709</ele>
        <time>2019-04-22T07:14:59Z</time>
      </trkpt>
      <trkpt lat="45.60082" lon="4.58807">
        <ele>709</ele>
        <time>2019-04-22T07:16:02Z</time>
      </trkpt>
      <trkpt lat="45.60084" lon="4.58817">
        <ele>708</ele>
        <time>2019-04-22T07:16:19Z</time>
      </trkpt>
      <trkpt lat="45.60083" lon="4.58824">
        <ele>708</ele>
        <time>2019-04-22T07:16:27Z</time>
      </trkpt>
      <trkpt lat="45.60084" lon="4.58835">
        <ele>711</ele>
        <time>2019-04-22T07:16:39Z</time>
      </trkpt>
      <trkpt lat="45.6008" lon="4.58843">
        <ele>711</ele>
        <time>2019-04-22T07:16:57Z</time>
      </trkpt>
      <trkpt lat="45.6008" lon="4.58851">
        <ele>711</ele>
        <time>2019-04-22T07:17:03Z</time>
      </trkpt>
      <trkpt lat="45.60079" lon="4.58868">
        <ele>711</ele>
        <time>2019-04-22T07:17:15Z</time>
      </trkpt>
      <trkpt lat="45.60083" lon="4.58875">
        <ele>711</ele>
        <time>2019-04-22T07:17:23Z</time>
      </trkpt>
      <trkpt lat="45.60089" lon="4.58879">
        <ele>711</ele>
        <time>2019-04-22T07:17:32Z</time>
      </trkpt>
      <trkpt lat="45.60093" lon="4.58883">
        <ele>711</ele>
        <time>2019-04-22T07:17:36Z</time>
      </trkpt>
      <trkpt lat="45.60099" lon="4.58885">
        <ele>711</ele>
        <time>2019-04-22T07:17:44Z</time>
      </trkpt>
      <trkpt lat="45.60103" lon="4.58882">
        <ele>711</ele>
        <time>2019-04-22T07:17:48Z</time>
      </trkpt>
      <trkpt lat="45.60109" lon="4.58885">
        <ele>710</ele>
        <time>2019-04-22T07:17:53Z</time>
      </trkpt>
      <trkpt lat="45.60118" lon="4.5892">
        <ele>709</ele>
        <time>2019-04-22T07:18:17Z</time>
      </trkpt>
      <trkpt lat="45.60126" lon="4.5893">
        <ele>708</ele>
        <time>2019-04-22T07:18:28Z</time>
      </trkpt>
      <trkpt lat="45.60132" lon="4.58928">
        <ele>708</ele>
        <time>2019-04-22T07:18:38Z</time>
      </trkpt>
      <trkpt lat="45.60134" lon="4.58922">
        <ele>708</ele>
        <time>2019-04-22T07:18:43Z</time>
      </trkpt>
      <trkpt lat="45.60141" lon="4.5891">
        <ele>708</ele>
        <time>2019-04-22T07:18:56Z</time>
      </trkpt>
      <trkpt lat="45.60152" lon="4.58907">
        <ele>709</ele>
        <time>2019-04-22T07:19:05Z</time>
      </trkpt>
      <trkpt lat="45.60161" lon="4.58908">
        <ele>710</ele>
        <time>2019-04-22T07:19:13Z</time>
      </trkpt>
      <trkpt lat="45.60166" lon="4.5891">
        <ele>711</ele>
        <time>2019-04-22T07:19:18Z</time>
      </trkpt>
      <trkpt lat="45.6019" lon="4.58912">
        <ele>712</ele>
        <time>2019-04-22T07:19:38Z</time>
      </trkpt>
      <trkpt lat="45.60194" lon="4.5891">
        <ele>713</ele>
        <time>2019-04-22T07:19:43Z</time>
      </trkpt>
      <trkpt lat="45.6021" lon="4.58915">
        <ele>714</ele>
        <time>2019-04-22T07:19:58Z</time>
      </trkpt>
      <trkpt lat="45.60215" lon="4.58914">
        <ele>714</ele>
        <time>2019-04-22T07:20:03Z</time>
      </trkpt>
      <trkpt lat="45.6022" lon="4.58912">
        <ele>714</ele>
        <time>2019-04-22T07:20:11Z</time>
      </trkpt>
      <trkpt lat="45.60224" lon="4.58902">
        <ele>715</ele>
        <time>2019-04-22T07:20:23Z</time>
      </trkpt>
      <trkpt lat="45.60228" lon="4.58896">
        <ele>716</ele>
        <time>2019-04-22T07:20:41Z</time>
      </trkpt>
      <trkpt lat="45.60231" lon="4.58889">
        <ele>716</ele>
        <time>2019-04-22T07:20:53Z</time>
      </trkpt>
      <trkpt lat="45.60232" lon="4.5889">
        <ele>716</ele>
        <time>2019-04-22T07:21:04Z</time>
      </trkpt>
      <trkpt lat="45.60234" lon="4.58883">
        <ele>716</ele>
        <time>2019-04-22T07:21:11Z</time>
      </trkpt>
      <trkpt lat="45.60237" lon="4.58876">
        <ele>717</ele>
        <time>2019-04-22T07:21:19Z</time>
      </trkpt>
      <trkpt lat="45.60241" lon="4.58872">
        <ele>717</ele>
        <time>2019-04-22T07:21:24Z</time>
      </trkpt>
      <trkpt lat="45.60245" lon="4.58866">
        <ele>718</ele>
        <time>2019-04-22T07:21:33Z</time>
      </trkpt>
      <trkpt lat="45.60262" lon="4.58847">
        <ele>720</ele>
        <time>2019-04-22T07:21:54Z</time>
      </trkpt>
      <trkpt lat="45.60264" lon="4.58839">
        <ele>721</ele>
        <time>2019-04-22T07:22:01Z</time>
      </trkpt>
      <trkpt lat="45.60277" lon="4.58812">
        <ele>724</ele>
        <time>2019-04-22T07:22:29Z</time>
      </trkpt>
      <trkpt lat="45.6029" lon="4.58766">
        <ele>729</ele>
        <time>2019-04-22T07:23:08Z</time>
      </trkpt>
      <trkpt lat="45.60292" lon="4.58743">
        <ele>731</ele>
        <time>2019-04-22T07:23:26Z</time>
      </trkpt>
      <trkpt lat="45.60298" lon="4.58725">
        <ele>733</ele>
        <time>2019-04-22T07:23:45Z</time>
      </trkpt>
      <trkpt lat="45.603" lon="4.58707">
        <ele>735</ele>
        <time>2019-04-22T07:24:13Z</time>
      </trkpt>
      <trkpt lat="45.60309" lon="4.58674">
        <ele>738</ele>
        <time>2019-04-22T07:24:43Z</time>
      </trkpt>
      <trkpt lat="45.60316" lon="4.58664">
        <ele>739</ele>
        <time>2019-04-22T07:24:53Z</time>
      </trkpt>
      <trkpt lat="45.6032" lon="4.58639">
        <ele>741</ele>
        <time>2019-04-22T07:25:15Z</time>
      </trkpt>
      <trkpt lat="45.60323" lon="4.58632">
        <ele>741</ele>
        <time>2019-04-22T07:25:21Z</time>
      </trkpt>
      <trkpt lat="45.60322" lon="4.58623">
        <ele>742</ele>
        <time>2019-04-22T07:25:29Z</time>
      </trkpt>
      <trkpt lat="45.60324" lon="4.58614">
        <ele>743</ele>
        <time>2019-04-22T07:25:41Z</time>
      </trkpt>
      <trkpt lat="45.60324" lon="4.58596">
        <ele>744</ele>
        <time>2019-04-22T07:26:05Z</time>
      </trkpt>
      <trkpt lat="45.60327" lon="4.58589">
        <ele>745</ele>
        <time>2019-04-22T07:26:11Z</time>
      </trkpt>
      <trkpt lat="45.60328" lon="4.58575">
        <ele>745</ele>
        <time>2019-04-22T07:26:21Z</time>
      </trkpt>
      <trkpt lat="45.60339" lon="4.58529">
        <ele>747</ele>
        <time>2019-04-22T07:26:59Z</time>
      </trkpt>
      <trkpt lat="45.60341" lon="4.58517">
        <ele>748</ele>
        <time>2019-04-22T07:27:21Z</time>
      </trkpt>
      <trkpt lat="45.60344" lon="4.58511">
        <ele>748</ele>
        <time>2019-04-22T07:27:25Z</time>
      </trkpt>
      <trkpt lat="45.60346" lon="4.58498">
        <ele>749</ele>
        <time>2019-04-22T07:27:35Z</time>
      </trkpt>
      <trkpt lat="45.60354" lon="4.58469">
        <ele>751</ele>
        <time>2019-04-22T07:27:59Z</time>
      </trkpt>
      <trkpt lat="45.60362" lon="4.58455">
        <ele>752</ele>
        <time>2019-04-22T07:28:13Z</time>
      </trkpt>
      <trkpt lat="45.60371" lon="4.58443">
        <ele>753</ele>
        <time>2019-04-22T07:28:39Z</time>
      </trkpt>
      <trkpt lat="45.60375" lon="4.58435">
        <ele>754</ele>
        <time>2019-04-22T07:28:50Z</time>
      </trkpt>
      <trkpt lat="45.60382" lon="4.58428">
        <ele>755</ele>
        <time>2019-04-22T07:29:00Z</time>
      </trkpt>
      <trkpt lat="45.60402" lon="4.58391">
        <ele>759</ele>
        <time>2019-04-22T07:29:37Z</time>
      </trkpt>
      <trkpt lat="45.60407" lon="4.5838">
        <ele>760</ele>
        <time>2019-04-22T07:29:49Z</time>
      </trkpt>
      <trkpt lat="45.6041" lon="4.58373">
        <ele>761</ele>
        <time>2019-04-22T07:30:07Z</time>
      </trkpt>
      <trkpt lat="45.60417" lon="4.58357">
        <ele>763</ele>
        <time>2019-04-22T07:30:55Z</time>
      </trkpt>
      <trkpt lat="45.6042" lon="4.58351">
        <ele>763</ele>
        <time>2019-04-22T07:31:00Z</time>
      </trkpt>
      <trkpt lat="45.60423" lon="4.58341">
        <ele>765</ele>
        <time>2019-04-22T07:31:10Z</time>
      </trkpt>
      <trkpt lat="45.60437" lon="4.58317">
        <ele>767</ele>
        <time>2019-04-22T07:31:35Z</time>
      </trkpt>
      <trkpt lat="45.60446" lon="4.58306">
        <ele>769</ele>
        <time>2019-04-22T07:32:10Z</time>
      </trkpt>
      <trkpt lat="45.60456" lon="4.58287">
        <ele>771</ele>
        <time>2019-04-22T07:32:29Z</time>
      </trkpt>
      <trkpt lat="45.60457" lon="4.58281">
        <ele>772</ele>
        <time>2019-04-22T07:32:49Z</time>
      </trkpt>
      <trkpt lat="45.60466" lon="4.5827">
        <ele>773</ele>
        <time>2019-04-22T07:33:12Z</time>
      </trkpt>
      <trkpt lat="45.60474" lon="4.58254">
        <ele>775</ele>
        <time>2019-04-22T07:33:28Z</time>
      </trkpt>
      <trkpt lat="45.60479" lon="4.58247">
        <ele>776</ele>
        <time>2019-04-22T07:33:40Z</time>
      </trkpt>
      <trkpt lat="45.60486" lon="4.58234">
        <ele>778</ele>
        <time>2019-04-22T07:34:19Z</time>
      </trkpt>
      <trkpt lat="45.60506" lon="4.582">
        <ele>780</ele>
        <time>2019-04-22T07:34:52Z</time>
      </trkpt>
      <trkpt lat="45.60512" lon="4.58189">
        <ele>781</ele>
        <time>2019-04-22T07:35:02Z</time>
      </trkpt>
      <trkpt lat="45.60521" lon="4.58161">
        <ele>784</ele>
        <time>2019-04-22T07:35:26Z</time>
      </trkpt>
      <trkpt lat="45.60539" lon="4.58127">
        <ele>787</ele>
        <time>2019-04-22T07:36:00Z</time>
      </trkpt>
      <trkpt lat="45.6056" lon="4.58097">
        <ele>789</ele>
        <time>2019-04-22T07:36:30Z</time>
      </trkpt>
      <trkpt lat="45.6058" lon="4.58059">
        <ele>793</ele>
        <time>2019-04-22T07:37:07Z</time>
      </trkpt>
      <trkpt lat="45.60583" lon="4.58051">
        <ele>793</ele>
        <time>2019-04-22T07:37:40Z</time>
      </trkpt>
      <trkpt lat="45.60586" lon="4.58046">
        <ele>794</ele>
        <time>2019-04-22T07:37:45Z</time>
      </trkpt>
      <trkpt lat="45.60587" lon="4.5804">
        <ele>795</ele>
        <time>2019-04-22T07:37:50Z</time>
      </trkpt>
      <trkpt lat="45.60612" lon="4.58006">
        <ele>799</ele>
        <time>2019-04-22T07:38:25Z</time>
      </trkpt>
      <trkpt lat="45.60625" lon="4.5798">
        <ele>802</ele>
        <time>2019-04-22T07:38:56Z</time>
      </trkpt>
      <trkpt lat="45.60632" lon="4.57967">
        <ele>803</ele>
        <time>2019-04-22T07:39:09Z</time>
      </trkpt>
      <trkpt lat="45.60651" lon="4.57941">
        <ele>807</ele>
        <time>2019-04-22T07:39:42Z</time>
      </trkpt>
      <trkpt lat="45.60665" lon="4.57916">
        <ele>810</ele>
        <time>2019-04-22T07:40:15Z</time>
      </trkpt>
      <trkpt lat="45.60673" lon="4.57907">
        <ele>812</ele>
        <time>2019-04-22T07:40:27Z</time>
      </trkpt>
      <trkpt lat="45.60691" lon="4.57869">
        <ele>815</ele>
        <time>2019-04-22T07:41:02Z</time>
      </trkpt>
      <trkpt lat="45.60694" lon="4.57864">
        <ele>816</ele>
        <time>2019-04-22T07:41:07Z</time>
      </trkpt>
      <trkpt lat="45.60706" lon="4.57822">
        <ele>818</ele>
        <time>2019-04-22T07:41:39Z</time>
      </trkpt>
      <trkpt lat="45.60708" lon="4.57811">
        <ele>818</ele>
        <time>2019-04-22T07:41:50Z</time>
      </trkpt>
      <trkpt lat="45.60714" lon="4.57802">
        <ele>818</ele>
        <time>2019-04-22T07:42:02Z</time>
      </trkpt>
      <trkpt lat="45.60714" lon="4.57793">
        <ele>818</ele>
        <time>2019-04-22T07:42:26Z</time>
      </trkpt>
      <trkpt lat="45.6072" lon="4.57782">
        <ele>817</ele>
        <time>2019-04-22T07:42:36Z</time>
      </trkpt>
      <trkpt lat="45.60732" lon="4.57741">
        <ele>813</ele>
        <time>2019-04-22T07:43:13Z</time>
      </trkpt>
      <trkpt lat="45.60735" lon="4.57732">
        <ele>812</ele>
        <time>2019-04-22T07:43:28Z</time>
      </trkpt>
      <trkpt lat="45.60741" lon="4.57715">
        <ele>811</ele>
        <time>2019-04-22T07:43:44Z</time>
      </trkpt>
      <trkpt lat="45.60756" lon="4.57683">
        <ele>806</ele>
        <time>2019-04-22T07:44:17Z</time>
      </trkpt>
      <trkpt lat="45.60761" lon="4.57682">
        <ele>805</ele>
        <time>2019-04-22T07:44:35Z</time>
      </trkpt>
      <trkpt lat="45.60765" lon="4.57677">
        <ele>804</ele>
        <time>2019-04-22T07:44:53Z</time>
      </trkpt>
      <trkpt lat="45.60768" lon="4.57667">
        <ele>802</ele>
        <time>2019-04-22T07:45:11Z</time>
      </trkpt>
      <trkpt lat="45.60779" lon="4.57647">
        <ele>799</ele>
        <time>2019-04-22T07:45:32Z</time>
      </trkpt>
      <trkpt lat="45.60814" lon="4.57625">
        <ele>792</ele>
        <time>2019-04-22T07:46:22Z</time>
      </trkpt>
      <trkpt lat="45.60834" lon="4.57616">
        <ele>788</ele>
        <time>2019-04-22T07:46:53Z</time>
      </trkpt>
      <trkpt lat="45.60864" lon="4.5761">
        <ele>783</ele>
        <time>2019-04-22T07:47:31Z</time>
      </trkpt>
      <trkpt lat="45.60885" lon="4.57614">
        <ele>781</ele>
        <time>2019-04-22T07:47:57Z</time>
      </trkpt>
      <trkpt lat="45.60897" lon="4.57616">
        <ele>779</ele>
        <time>2019-04-22T07:48:13Z</time>
      </trkpt>
      <trkpt lat="45.60921" lon="4.57618">
        <ele>776</ele>
        <time>2019-04-22T07:48:44Z</time>
      </trkpt>
      <trkpt lat="45.60937" lon="4.57616">
        <ele>774</ele>
        <time>2019-04-22T07:49:02Z</time>
      </trkpt>
      <trkpt lat="45.60958" lon="4.57617">
        <ele>770</ele>
        <time>2019-04-22T07:49:44Z</time>
      </trkpt>
      <trkpt lat="45.60968" lon="4.57616">
        <ele>769</ele>
        <time>2019-04-22T07:49:53Z</time>
      </trkpt>
      <trkpt lat="45.60978" lon="4.57622">
        <ele>764</ele>
        <time>2019-04-22T07:51:24Z</time>
      </trkpt>
      <trkpt lat="45.60995" lon="4.57622">
        <ele>762</ele>
        <time>2019-04-22T07:51:45Z</time>
      </trkpt>
      <trkpt lat="45.61003" lon="4.57617">
        <ele>759</ele>
        <time>2019-04-22T07:52:01Z</time>
      </trkpt>
      <trkpt lat="45.61014" lon="4.57613">
        <ele>757</ele>
        <time>2019-04-22T07:52:19Z</time>
      </trkpt>
      <trkpt lat="45.61023" lon="4.5761">
        <ele>756</ele>
        <time>2019-04-22T07:52:31Z</time>
      </trkpt>
      <trkpt lat="45.61031" lon="4.57604">
        <ele>754</ele>
        <time>2019-04-22T07:52:49Z</time>
      </trkpt>
      <trkpt lat="45.61041" lon="4.5761">
        <ele>752</ele>
        <time>2019-04-22T07:53:02Z</time>
      </trkpt>
      <trkpt lat="45.61049" lon="4.57604">
        <ele>749</ele>
        <time>2019-04-22T07:53:40Z</time>
      </trkpt>
      <trkpt lat="45.61061" lon="4.576">
        <ele>748</ele>
        <time>2019-04-22T07:53:54Z</time>
      </trkpt>
      <trkpt lat="45.6109" lon="4.5757">
        <ele>743</ele>
        <time>2019-04-22T07:54:38Z</time>
      </trkpt>
      <trkpt lat="45.61102" lon="4.57563">
        <ele>742</ele>
        <time>2019-04-22T07:54:53Z</time>
      </trkpt>
      <trkpt lat="45.61105" lon="4.57565">
        <ele>743</ele>
        <time>2019-04-22T07:55:35Z</time>
      </trkpt>
      <trkpt lat="45.6111" lon="4.57558">
        <ele>743</ele>
        <time>2019-04-22T07:56:23Z</time>
      </trkpt>
      <trkpt lat="45.61118" lon="4.57556">
        <ele>742</ele>
        <time>2019-04-22T07:56:48Z</time>
      </trkpt>
      <trkpt lat="45.61123" lon="4.57551">
        <ele>742</ele>
        <time>2019-04-22T07:56:54Z</time>
      </trkpt>
      <trkpt lat="45.61152" lon="4.57535">
        <ele>741</ele>
        <time>2019-04-22T07:57:26Z</time>
      </trkpt>
      <trkpt lat="45.61168" lon="4.57519">
        <ele>741</ele>
        <time>2019-04-22T07:57:43Z</time>
      </trkpt>
      <trkpt lat="45.61158" lon="4.57525">
        <ele>742</ele>
        <time>2019-04-22T07:58:19Z</time>
      </trkpt>
      <trkpt lat="45.61151" lon="4.57527">
        <ele>742</ele>
        <time>2019-04-22T07:58:26Z</time>
      </trkpt>
      <trkpt lat="45.61138" lon="4.57535">
        <ele>742</ele>
        <time>2019-04-22T07:58:40Z</time>
      </trkpt>
      <trkpt lat="45.61133" lon="4.57539">
        <ele>743</ele>
        <time>2019-04-22T07:59:40Z</time>
      </trkpt>
      <trkpt lat="45.61124" lon="4.57546">
        <ele>743</ele>
        <time>2019-04-22T07:59:47Z</time>
      </trkpt>
      <trkpt lat="45.61119" lon="4.57548">
        <ele>743</ele>
        <time>2019-04-22T07:59:51Z</time>
      </trkpt>
      <trkpt lat="45.61114" lon="4.57548">
        <ele>744</ele>
        <time>2019-04-22T07:59:55Z</time>
      </trkpt>
      <trkpt lat="45.6111" lon="4.57552">
        <ele>744</ele>
        <time>2019-04-22T07:59:59Z</time>
      </trkpt>
      <trkpt lat="45.61107" lon="4.57557">
        <ele>744</ele>
        <time>2019-04-22T08:00:03Z</time>
      </trkpt>
      <trkpt lat="45.61106" lon="4.57565">
        <ele>745</ele>
        <time>2019-04-22T08:00:08Z</time>
      </trkpt>
      <trkpt lat="45.61108" lon="4.5757">
        <ele>745</ele>
        <time>2019-04-22T08:00:12Z</time>
      </trkpt>
      <trkpt lat="45.61116" lon="4.57583">
        <ele>747</ele>
        <time>2019-04-22T08:00:24Z</time>
      </trkpt>
      <trkpt lat="45.61124" lon="4.57581">
        <ele>748</ele>
        <time>2019-04-22T08:01:36Z</time>
      </trkpt>
      <trkpt lat="45.61125" lon="4.57589">
        <ele>748</ele>
        <time>2019-04-22T08:01:43Z</time>
      </trkpt>
      <trkpt lat="45.61133" lon="4.57598">
        <ele>749</ele>
        <time>2019-04-22T08:01:57Z</time>
      </trkpt>
      <trkpt lat="45.61141" lon="4.57607">
        <ele>749</ele>
        <time>2019-04-22T08:02:39Z</time>
      </trkpt>
      <trkpt lat="45.61147" lon="4.57614">
        <ele>750</ele>
        <time>2019-04-22T08:02:47Z</time>
      </trkpt>
      <trkpt lat="45.61149" lon="4.5762">
        <ele>750</ele>
        <time>2019-04-22T08:02:52Z</time>
      </trkpt>
      <trkpt lat="45.61178" lon="4.57645">
        <ele>753</ele>
        <time>2019-04-22T08:03:25Z</time>
      </trkpt>
      <trkpt lat="45.61183" lon="4.57648">
        <ele>753</ele>
        <time>2019-04-22T08:03:29Z</time>
      </trkpt>
      <trkpt lat="45.61203" lon="4.57653">
        <ele>755</ele>
        <time>2019-04-22T08:03:49Z</time>
      </trkpt>
      <trkpt lat="45.61236" lon="4.57681">
        <ele>759</ele>
        <time>2019-04-22T08:04:28Z</time>
      </trkpt>
      <trkpt lat="45.61238" lon="4.57692">
        <ele>761</ele>
        <time>2019-04-22T08:04:39Z</time>
      </trkpt>
      <trkpt lat="45.61235" lon="4.57702">
        <ele>762</ele>
        <time>2019-04-22T08:04:49Z</time>
      </trkpt>
      <trkpt lat="45.61212" lon="4.57725">
        <ele>765</ele>
        <time>2019-04-22T08:05:18Z</time>
      </trkpt>
      <trkpt lat="45.612" lon="4.57749">
        <ele>767</ele>
        <time>2019-04-22T08:05:38Z</time>
      </trkpt>
      <trkpt lat="45.61195" lon="4.57766">
        <ele>768</ele>
        <time>2019-04-22T08:05:53Z</time>
      </trkpt>
      <trkpt lat="45.61177" lon="4.57796">
        <ele>770</ele>
        <time>2019-04-22T08:06:21Z</time>
      </trkpt>
      <trkpt lat="45.61173" lon="4.578">
        <ele>771</ele>
        <time>2019-04-22T08:06:26Z</time>
      </trkpt>
      <trkpt lat="45.61171" lon="4.57806">
        <ele>771</ele>
        <time>2019-04-22T08:06:31Z</time>
      </trkpt>
      <trkpt lat="45.61171" lon="4.57812">
        <ele>772</ele>
        <time>2019-04-22T08:06:36Z</time>
      </trkpt>
      <trkpt lat="45.61175" lon="4.57821">
        <ele>772</ele>
        <time>2019-04-22T08:06:44Z</time>
      </trkpt>
      <trkpt lat="45.61181" lon="4.57833">
        <ele>774</ele>
        <time>2019-04-22T08:06:54Z</time>
      </trkpt>
      <trkpt lat="45.612" lon="4.57861">
        <ele>777</ele>
        <time>2019-04-22T08:07:27Z</time>
      </trkpt>
      <trkpt lat="45.61205" lon="4.57861">
        <ele>778</ele>
        <time>2019-04-22T08:07:33Z</time>
      </trkpt>
      <trkpt lat="45.61217" lon="4.57861">
        <ele>778</ele>
        <time>2019-04-22T08:07:45Z</time>
      </trkpt>
      <trkpt lat="45.61226" lon="4.57861">
        <ele>779</ele>
        <time>2019-04-22T08:07:56Z</time>
      </trkpt>
      <trkpt lat="45.61231" lon="4.5786">
        <ele>780</ele>
        <time>2019-04-22T08:08:02Z</time>
      </trkpt>
      <trkpt lat="45.61237" lon="4.5786">
        <ele>780</ele>
        <time>2019-04-22T08:08:09Z</time>
      </trkpt>
      <trkpt lat="45.61244" lon="4.57857">
        <ele>780</ele>
        <time>2019-04-22T08:08:17Z</time>
      </trkpt>
      <trkpt lat="45.61257" lon="4.57851">
        <ele>779</ele>
        <time>2019-04-22T08:08:35Z</time>
      </trkpt>
      <trkpt lat="45.61263" lon="4.5785">
        <ele>779</ele>
        <time>2019-04-22T08:08:42Z</time>
      </trkpt>
      <trkpt lat="45.61268" lon="4.57847">
        <ele>778</ele>
        <time>2019-04-22T08:08:47Z</time>
      </trkpt>
      <trkpt lat="45.61271" lon="4.57842">
        <ele>778</ele>
        <time>2019-04-22T08:08:52Z</time>
      </trkpt>
      <trkpt lat="45.61274" lon="4.57837">
        <ele>777</ele>
        <time>2019-04-22T08:08:57Z</time>
      </trkpt>
      <trkpt lat="45.61287" lon="4.57822">
        <ele>776</ele>
        <time>2019-04-22T08:09:17Z</time>
      </trkpt>
      <trkpt lat="45.6129" lon="4.57817">
        <ele>775</ele>
        <time>2019-04-22T08:09:23Z</time>
      </trkpt>
      <trkpt lat="45.61288" lon="4.57819">
        <ele>775</ele>
        <time>2019-04-22T08:10:11Z</time>
      </trkpt>
      <trkpt lat="45.61283" lon="4.57826">
        <ele>776</ele>
        <time>2019-04-22T08:10:29Z</time>
      </trkpt>
      <trkpt lat="45.61278" lon="4.57835">
        <ele>777</ele>
        <time>2019-04-22T08:10:41Z</time>
      </trkpt>
      <trkpt lat="45.61273" lon="4.5784">
        <ele>777</ele>
        <time>2019-04-22T08:10:53Z</time>
      </trkpt>
      <trkpt lat="45.61268" lon="4.57847">
        <ele>778</ele>
        <time>2019-04-22T08:11:11Z</time>
      </trkpt>
      <trkpt lat="45.61263" lon="4.57849">
        <ele>778</ele>
        <time>2019-04-22T08:11:15Z</time>
      </trkpt>
      <trkpt lat="45.61258" lon="4.5785">
        <ele>779</ele>
        <time>2019-04-22T08:11:24Z</time>
      </trkpt>
      <trkpt lat="45.61253" lon="4.57852">
        <ele>779</ele>
        <time>2019-04-22T08:11:30Z</time>
      </trkpt>
      <trkpt lat="45.61251" lon="4.57862">
        <ele>780</ele>
        <time>2019-04-22T08:11:41Z</time>
      </trkpt>
      <trkpt lat="45.61256" lon="4.57863">
        <ele>780</ele>
        <time>2019-04-22T08:11:53Z</time>
      </trkpt>
      <trkpt lat="45.61261" lon="4.57864">
        <ele>780</ele>
        <time>2019-04-22T08:11:58Z</time>
      </trkpt>
      <trkpt lat="45.61273" lon="4.57869">
        <ele>781</ele>
        <time>2019-04-22T08:12:26Z</time>
      </trkpt>
      <trkpt lat="45.61281" lon="4.57872">
        <ele>781</ele>
        <time>2019-04-22T08:12:50Z</time>
      </trkpt>
      <trkpt lat="45.61291" lon="4.57884">
        <ele>782</ele>
        <time>2019-04-22T08:13:14Z</time>
      </trkpt>
      <trkpt lat="45.61295" lon="4.57891">
        <ele>782</ele>
        <time>2019-04-22T08:13:22Z</time>
      </trkpt>
      <trkpt lat="45.61303" lon="4.57897">
        <ele>783</ele>
        <time>2019-04-22T08:14:06Z</time>
      </trkpt>
      <trkpt lat="45.61309" lon="4.57913">
        <ele>784</ele>
        <time>2019-04-22T08:14:36Z</time>
      </trkpt>
      <trkpt lat="45.61314" lon="4.57922">
        <ele>784</ele>
        <time>2019-04-22T08:14:48Z</time>
      </trkpt>
      <trkpt lat="45.61317" lon="4.57929">
        <ele>784</ele>
        <time>2019-04-22T08:14:56Z</time>
      </trkpt>
      <trkpt lat="45.61318" lon="4.57941">
        <ele>786</ele>
        <time>2019-04-22T08:15:16Z</time>
      </trkpt>
      <trkpt lat="45.6132" lon="4.57955">
        <ele>787</ele>
        <time>2019-04-22T08:15:34Z</time>
      </trkpt>
      <trkpt lat="45.61323" lon="4.57967">
        <ele>788</ele>
        <time>2019-04-22T08:15:46Z</time>
      </trkpt>
      <trkpt lat="45.6132" lon="4.57999">
        <ele>790</ele>
        <time>2019-04-22T08:16:09Z</time>
      </trkpt>
      <trkpt lat="45.61323" lon="4.58033">
        <ele>795</ele>
        <time>2019-04-22T08:16:45Z</time>
      </trkpt>
      <trkpt lat="45.61322" lon="4.58048">
        <ele>797</ele>
        <time>2019-04-22T08:17:09Z</time>
      </trkpt>
      <trkpt lat="45.61321" lon="4.58076">
        <ele>799</ele>
        <time>2019-04-22T08:17:45Z</time>
      </trkpt>
      <trkpt lat="45.61321" lon="4.58084">
        <ele>800</ele>
        <time>2019-04-22T08:17:51Z</time>
      </trkpt>
      <trkpt lat="45.6132" lon="4.5809">
        <ele>800</ele>
        <time>2019-04-22T08:17:56Z</time>
      </trkpt>
      <trkpt lat="45.61317" lon="4.58126">
        <ele>804</ele>
        <time>2019-04-22T08:18:28Z</time>
      </trkpt>
      <trkpt lat="45.61317" lon="4.58155">
        <ele>806</ele>
        <time>2019-04-22T08:18:59Z</time>
      </trkpt>
      <trkpt lat="45.61316" lon="4.58164">
        <ele>807</ele>
        <time>2019-04-22T08:19:06Z</time>
      </trkpt>
      <trkpt lat="45.61316" lon="4.58174">
        <ele>809</ele>
        <time>2019-04-22T08:19:16Z</time>
      </trkpt>
      <trkpt lat="45.61314" lon="4.58182">
        <ele>810</ele>
        <time>2019-04-22T08:19:26Z</time>
      </trkpt>
      <trkpt lat="45.61314" lon="4.58207">
        <ele>812</ele>
        <time>2019-04-22T08:19:54Z</time>
      </trkpt>
      <trkpt lat="45.61312" lon="4.58214">
        <ele>813</ele>
        <time>2019-04-22T08:19:59Z</time>
      </trkpt>
      <trkpt lat="45.61306" lon="4.58244">
        <ele>817</ele>
        <time>2019-04-22T08:20:31Z</time>
      </trkpt>
      <trkpt lat="45.61303" lon="4.5825">
        <ele>817</ele>
        <time>2019-04-22T08:20:37Z</time>
      </trkpt>
      <trkpt lat="45.61291" lon="4.5827">
        <ele>821</ele>
        <time>2019-04-22T08:21:07Z</time>
      </trkpt>
      <trkpt lat="45.61286" lon="4.5828">
        <ele>822</ele>
        <time>2019-04-22T08:21:19Z</time>
      </trkpt>
      <trkpt lat="45.61275" lon="4.58293">
        <ele>823</ele>
        <time>2019-04-22T08:21:37Z</time>
      </trkpt>
      <trkpt lat="45.61274" lon="4.58302">
        <ele>824</ele>
        <time>2019-04-22T08:21:45Z</time>
      </trkpt>
      <trkpt lat="45.6127" lon="4.58307">
        <ele>825</ele>
        <time>2019-04-22T08:21:51Z</time>
      </trkpt>
      <trkpt lat="45.61268" lon="4.58323">
        <ele>826</ele>
        <time>2019-04-22T08:22:09Z</time>
      </trkpt>
      <trkpt lat="45.61269" lon="4.58336">
        <ele>827</ele>
        <time>2019-04-22T08:22:19Z</time>
      </trkpt>
      <trkpt lat="45.6127" lon="4.58344">
        <ele>827</ele>
        <time>2019-04-22T08:22:27Z</time>
      </trkpt>
      <trkpt lat="45.61273" lon="4.58349">
        <ele>827</ele>
        <time>2019-04-22T08:22:32Z</time>
      </trkpt>
      <trkpt lat="45.61277" lon="4.58356">
        <ele>829</ele>
        <time>2019-04-22T08:22:41Z</time>
      </trkpt>
      <trkpt lat="45.61283" lon="4.58354">
        <ele>830</ele>
        <time>2019-04-22T08:23:35Z</time>
      </trkpt>
      <trkpt lat="45.61289" lon="4.58348">
        <ele>830</ele>
        <time>2019-04-22T08:23:45Z</time>
      </trkpt>
      <trkpt lat="45.61293" lon="4.58341">
        <ele>830</ele>
        <time>2019-04-22T08:24:33Z</time>
      </trkpt>
      <trkpt lat="45.61291" lon="4.58345">
        <ele>831</ele>
        <time>2019-04-22T08:26:20Z</time>
      </trkpt>
      <trkpt lat="45.61291" lon="4.58357">
        <ele>831</ele>
        <time>2019-04-22T08:26:32Z</time>
      </trkpt>
      <trkpt lat="45.6129" lon="4.58364">
        <ele>831</ele>
        <time>2019-04-22T08:26:37Z</time>
      </trkpt>
      <trkpt lat="45.61292" lon="4.58372">
        <ele>831</ele>
        <time>2019-04-22T08:26:45Z</time>
      </trkpt>
      <trkpt lat="45.61293" lon="4.58379">
        <ele>831</ele>
        <time>2019-04-22T08:26:50Z</time>
      </trkpt>
      <trkpt lat="45.61294" lon="4.58385">
        <ele>831</ele>
        <time>2019-04-22T08:26:55Z</time>
      </trkpt>
      <trkpt lat="45.61301" lon="4.5842">
        <ele>832</ele>
        <time>2019-04-22T08:27:20Z</time>
      </trkpt>
      <trkpt lat="45.61301" lon="4.58428">
        <ele>832</ele>
        <time>2019-04-22T08:27:25Z</time>
      </trkpt>
      <trkpt lat="45.61306" lon="4.58471">
        <ele>834</ele>
        <time>2019-04-22T08:27:55Z</time>
      </trkpt>
      <trkpt lat="45.61312" lon="4.58499">
        <ele>835</ele>
        <time>2019-04-22T08:28:15Z</time>
      </trkpt>
      <trkpt lat="45.61316" lon="4.58506">
        <ele>836</ele>
        <time>2019-04-22T08:28:23Z</time>
      </trkpt>
      <trkpt lat="45.61328" lon="4.58506">
        <ele>836</ele>
        <time>2019-04-22T08:28:36Z</time>
      </trkpt>
      <trkpt lat="45.61336" lon="4.58503">
        <ele>836</ele>
        <time>2019-04-22T08:28:56Z</time>
      </trkpt>
      <trkpt lat="45.61353" lon="4.58499">
        <ele>836</ele>
        <time>2019-04-22T08:29:30Z</time>
      </trkpt>
      <trkpt lat="45.61368" lon="4.58496">
        <ele>835</ele>
        <time>2019-04-22T08:29:42Z</time>
      </trkpt>
      <trkpt lat="45.61387" lon="4.58492">
        <ele>835</ele>
        <time>2019-04-22T08:29:59Z</time>
      </trkpt>
      <trkpt lat="45.61401" lon="4.5849">
        <ele>835</ele>
        <time>2019-04-22T08:30:12Z</time>
      </trkpt>
      <trkpt lat="45.61438" lon="4.5849">
        <ele>833</ele>
        <time>2019-04-22T08:30:45Z</time>
      </trkpt>
      <trkpt lat="45.61473" lon="4.58493">
        <ele>831</ele>
        <time>2019-04-22T08:31:18Z</time>
      </trkpt>
      <trkpt lat="45.61507" lon="4.58501">
        <ele>828</ele>
        <time>2019-04-22T08:31:51Z</time>
      </trkpt>
      <trkpt lat="45.61522" lon="4.58504">
        <ele>827</ele>
        <time>2019-04-22T08:32:06Z</time>
      </trkpt>
      <trkpt lat="45.61528" lon="4.58507">
        <ele>826</ele>
        <time>2019-04-22T08:32:12Z</time>
      </trkpt>
      <trkpt lat="45.61559" lon="4.58514">
        <ele>824</ele>
        <time>2019-04-22T08:32:41Z</time>
      </trkpt>
      <trkpt lat="45.6157" lon="4.58512">
        <ele>823</ele>
        <time>2019-04-22T08:32:51Z</time>
      </trkpt>
      <trkpt lat="45.61586" lon="4.58512">
        <ele>821</ele>
        <time>2019-04-22T08:33:05Z</time>
      </trkpt>
      <trkpt lat="45.6159" lon="4.58509">
        <ele>821</ele>
        <time>2019-04-22T08:33:10Z</time>
      </trkpt>
      <trkpt lat="45.61618" lon="4.58492">
        <ele>818</ele>
        <time>2019-04-22T08:33:41Z</time>
      </trkpt>
      <trkpt lat="45.61642" lon="4.58478">
        <ele>815</ele>
        <time>2019-04-22T08:34:11Z</time>
      </trkpt>
      <trkpt lat="45.61668" lon="4.58451">
        <ele>810</ele>
        <time>2019-04-22T08:34:45Z</time>
      </trkpt>
      <trkpt lat="45.61687" lon="4.58425">
        <ele>805</ele>
        <time>2019-04-22T08:35:14Z</time>
      </trkpt>
      <trkpt lat="45.61717" lon="4.58395">
        <ele>801</ele>
        <time>2019-04-22T08:35:49Z</time>
      </trkpt>
      <trkpt lat="45.61734" lon="4.58384">
        <ele>801</ele>
        <time>2019-04-22T08:36:05Z</time>
      </trkpt>
      <trkpt lat="45.61739" lon="4.58383">
        <ele>801</ele>
        <time>2019-04-22T08:36:10Z</time>
      </trkpt>
      <trkpt lat="45.61744" lon="4.58383">
        <ele>801</ele>
        <time>2019-04-22T08:36:15Z</time>
      </trkpt>
      <trkpt lat="45.61749" lon="4.58384">
        <ele>800</ele>
        <time>2019-04-22T08:36:20Z</time>
      </trkpt>
      <trkpt lat="45.61758" lon="4.58387">
        <ele>801</ele>
        <time>2019-04-22T08:36:29Z</time>
      </trkpt>
      <trkpt lat="45.61777" lon="4.58395">
        <ele>800</ele>
        <time>2019-04-22T08:36:47Z</time>
      </trkpt>
      <trkpt lat="45.61787" lon="4.58394">
        <ele>800</ele>
        <time>2019-04-22T08:36:55Z</time>
      </trkpt>
      <trkpt lat="45.61796" lon="4.58388">
        <ele>800</ele>
        <time>2019-04-22T08:37:05Z</time>
      </trkpt>
      <trkpt lat="45.61811" lon="4.58368">
        <ele>801</ele>
        <time>2019-04-22T08:37:25Z</time>
      </trkpt>
      <trkpt lat="45.61831" lon="4.58331">
        <ele>805</ele>
        <time>2019-04-22T08:38:00Z</time>
      </trkpt>
      <trkpt lat="45.61838" lon="4.58318">
        <ele>807</ele>
        <time>2019-04-22T08:38:15Z</time>
      </trkpt>
      <trkpt lat="45.61839" lon="4.5831">
        <ele>808</ele>
        <time>2019-04-22T08:38:27Z</time>
      </trkpt>
      <trkpt lat="45.61837" lon="4.58303">
        <ele>808</ele>
        <time>2019-04-22T08:38:34Z</time>
      </trkpt>
      <trkpt lat="45.61815" lon="4.58272">
        <ele>804</ele>
        <time>2019-04-22T08:40:08Z</time>
      </trkpt>
      <trkpt lat="45.61808" lon="4.58257">
        <ele>803</ele>
        <time>2019-04-22T08:40:23Z</time>
      </trkpt>
      <trkpt lat="45.61808" lon="4.58259">
        <ele>802</ele>
        <time>2019-04-22T08:41:54Z</time>
      </trkpt>
      <trkpt lat="45.61818" lon="4.5827">
        <ele>803</ele>
        <time>2019-04-22T08:42:11Z</time>
      </trkpt>
      <trkpt lat="45.6183" lon="4.58293">
        <ele>804</ele>
        <time>2019-04-22T08:42:30Z</time>
      </trkpt>
      <trkpt lat="45.61851" lon="4.58319">
        <ele>806</ele>
        <time>2019-04-22T08:42:59Z</time>
      </trkpt>
      <trkpt lat="45.61859" lon="4.58334">
        <ele>807</ele>
        <time>2019-04-22T08:43:12Z</time>
      </trkpt>
      <trkpt lat="45.61863" lon="4.58338">
        <ele>808</ele>
        <time>2019-04-22T08:43:17Z</time>
      </trkpt>
      <trkpt lat="45.61874" lon="4.5836">
        <ele>809</ele>
        <time>2019-04-22T08:43:36Z</time>
      </trkpt>
      <trkpt lat="45.61886" lon="4.58399">
        <ele>811</ele>
        <time>2019-04-22T08:44:08Z</time>
      </trkpt>
      <trkpt lat="45.61887" lon="4.58409">
        <ele>812</ele>
        <time>2019-04-22T08:44:16Z</time>
      </trkpt>
      <trkpt lat="45.61902" lon="4.58451">
        <ele>814</ele>
        <time>2019-04-22T08:44:48Z</time>
      </trkpt>
      <trkpt lat="45.61917" lon="4.58484">
        <ele>816</ele>
        <time>2019-04-22T08:45:19Z</time>
      </trkpt>
      <trkpt lat="45.61927" lon="4.58503">
        <ele>818</ele>
        <time>2019-04-22T08:45:37Z</time>
      </trkpt>
      <trkpt lat="45.61937" lon="4.58527">
        <ele>819</ele>
        <time>2019-04-22T08:45:57Z</time>
      </trkpt>
      <trkpt lat="45.6195" lon="4.5855">
        <ele>821</ele>
        <time>2019-04-22T08:46:19Z</time>
      </trkpt>
      <trkpt lat="45.61958" lon="4.58557">
        <ele>822</ele>
        <time>2019-04-22T08:46:29Z</time>
      </trkpt>
      <trkpt lat="45.61973" lon="4.5858">
        <ele>823</ele>
        <time>2019-04-22T08:46:50Z</time>
      </trkpt>
      <trkpt lat="45.61999" lon="4.58606">
        <ele>825</ele>
        <time>2019-04-22T08:47:25Z</time>
      </trkpt>
      <trkpt lat="45.62012" lon="4.58622">
        <ele>827</ele>
        <time>2019-04-22T08:47:43Z</time>
      </trkpt>
      <trkpt lat="45.62022" lon="4.58631">
        <ele>827</ele>
        <time>2019-04-22T08:47:56Z</time>
      </trkpt>
      <trkpt lat="45.62033" lon="4.58645">
        <ele>828</ele>
        <time>2019-04-22T08:48:11Z</time>
      </trkpt>
      <trkpt lat="45.62046" lon="4.58665">
        <ele>830</ele>
        <time>2019-04-22T08:48:30Z</time>
      </trkpt>
      <trkpt lat="45.62058" lon="4.58676">
        <ele>831</ele>
        <time>2019-04-22T08:49:00Z</time>
      </trkpt>
      <trkpt lat="45.62061" lon="4.58681">
        <ele>831</ele>
        <time>2019-04-22T08:49:05Z</time>
      </trkpt>
      <trkpt lat="45.62075" lon="4.58689">
        <ele>832</ele>
        <time>2019-04-22T08:49:23Z</time>
      </trkpt>
      <trkpt lat="45.62086" lon="4.58689">
        <ele>833</ele>
        <time>2019-04-22T08:49:37Z</time>
      </trkpt>
      <trkpt lat="45.62118" lon="4.58675">
        <ele>836</ele>
        <time>2019-04-22T08:50:12Z</time>
      </trkpt>
      <trkpt lat="45.62133" lon="4.58669">
        <ele>837</ele>
        <time>2019-04-22T08:50:29Z</time>
      </trkpt>
      <trkpt lat="45.62146" lon="4.58663">
        <ele>838</ele>
        <time>2019-04-22T08:51:02Z</time>
      </trkpt>
      <trkpt lat="45.62167" lon="4.58658">
        <ele>839</ele>
        <time>2019-04-22T08:51:37Z</time>
      </trkpt>
      <trkpt lat="45.62171" lon="4.58657">
        <ele>839</ele>
        <time>2019-04-22T08:51:42Z</time>
      </trkpt>
      <trkpt lat="45.62176" lon="4.58659">
        <ele>840</ele>
        <time>2019-04-22T08:51:51Z</time>
      </trkpt>
      <trkpt lat="45.6218" lon="4.58661">
        <ele>840</ele>
        <time>2019-04-22T08:51:56Z</time>
      </trkpt>
      <trkpt lat="45.62191" lon="4.58676">
        <ele>841</ele>
        <time>2019-04-22T08:52:11Z</time>
      </trkpt>
      <trkpt lat="45.6221" lon="4.58715">
        <ele>842</ele>
        <time>2019-04-22T08:52:45Z</time>
      </trkpt>
      <trkpt lat="45.62214" lon="4.58741">
        <ele>842</ele>
        <time>2019-04-22T08:53:13Z</time>
      </trkpt>
      <trkpt lat="45.62211" lon="4.58776">
        <ele>841</ele>
        <time>2019-04-22T08:53:38Z</time>
      </trkpt>
      <trkpt lat="45.62209" lon="4.58787">
        <ele>840</ele>
        <time>2019-04-22T08:53:48Z</time>
      </trkpt>
      <trkpt lat="45.622" lon="4.58812">
        <ele>840</ele>
        <time>2019-04-22T08:54:09Z</time>
      </trkpt>
      <trkpt lat="45.62194" lon="4.58823">
        <ele>840</ele>
        <time>2019-04-22T08:54:22Z</time>
      </trkpt>
      <trkpt lat="45.62189" lon="4.5883">
        <ele>841</ele>
        <time>2019-04-22T08:54:52Z</time>
      </trkpt>
      <trkpt lat="45.62186" lon="4.58836">
        <ele>841</ele>
        <time>2019-04-22T08:54:58Z</time>
      </trkpt>
      <trkpt lat="45.62182" lon="4.5884">
        <ele>841</ele>
        <time>2019-04-22T08:55:10Z</time>
      </trkpt>
      <trkpt lat="45.62178" lon="4.58845">
        <ele>841</ele>
        <time>2019-04-22T08:55:15Z</time>
      </trkpt>
      <trkpt lat="45.62173" lon="4.58852">
        <ele>841</ele>
        <time>2019-04-22T08:55:25Z</time>
      </trkpt>
      <trkpt lat="45.62171" lon="4.58858">
        <ele>840</ele>
        <time>2019-04-22T08:55:30Z</time>
      </trkpt>
      <trkpt lat="45.62163" lon="4.58867">
        <ele>841</ele>
        <time>2019-04-22T08:55:40Z</time>
      </trkpt>
      <trkpt lat="45.62159" lon="4.58872">
        <ele>841</ele>
        <time>2019-04-22T08:55:45Z</time>
      </trkpt>
      <trkpt lat="45.62143" lon="4.58894">
        <ele>843</ele>
        <time>2019-04-22T08:56:10Z</time>
      </trkpt>
      <trkpt lat="45.62132" lon="4.58906">
        <ele>845</ele>
        <time>2019-04-22T08:56:28Z</time>
      </trkpt>
      <trkpt lat="45.62129" lon="4.58911">
        <ele>845</ele>
        <time>2019-04-22T08:56:34Z</time>
      </trkpt>
      <trkpt lat="45.62124" lon="4.58917">
        <ele>846</ele>
        <time>2019-04-22T08:56:52Z</time>
      </trkpt>
      <trkpt lat="45.62121" lon="4.58923">
        <ele>847</ele>
        <time>2019-04-22T08:56:58Z</time>
      </trkpt>
      <trkpt lat="45.62111" lon="4.58935">
        <ele>849</ele>
        <time>2019-04-22T08:57:16Z</time>
      </trkpt>
      <trkpt lat="45.621" lon="4.58951">
        <ele>850</ele>
        <time>2019-04-22T08:57:33Z</time>
      </trkpt>
      <trkpt lat="45.62097" lon="4.58965">
        <ele>851</ele>
        <time>2019-04-22T08:57:53Z</time>
      </trkpt>
      <trkpt lat="45.62096" lon="4.58964">
        <ele>854</ele>
        <time>2019-04-22T09:07:53Z</time>
      </trkpt>
      <trkpt lat="45.62091" lon="4.58973">
        <ele>854</ele>
        <time>2019-04-22T09:08:05Z</time>
      </trkpt>
      <trkpt lat="45.62087" lon="4.58976">
        <ele>854</ele>
        <time>2019-04-22T09:08:12Z</time>
      </trkpt>
      <trkpt lat="45.62079" lon="4.58987">
        <ele>855</ele>
        <time>2019-04-22T09:08:22Z</time>
      </trkpt>
      <trkpt lat="45.62068" lon="4.59003">
        <ele>855</ele>
        <time>2019-04-22T09:08:37Z</time>
      </trkpt>
      <trkpt lat="45.62064" lon="4.59019">
        <ele>855</ele>
        <time>2019-04-22T09:08:57Z</time>
      </trkpt>
      <trkpt lat="45.62052" lon="4.5905">
        <ele>858</ele>
        <time>2019-04-22T09:09:32Z</time>
      </trkpt>
      <trkpt lat="45.62049" lon="4.59055">
        <ele>858</ele>
        <time>2019-04-22T09:09:37Z</time>
      </trkpt>
      <trkpt lat="45.62047" lon="4.59062">
        <ele>858</ele>
        <time>2019-04-22T09:09:42Z</time>
      </trkpt>
      <trkpt lat="45.62045" lon="4.59072">
        <ele>859</ele>
        <time>2019-04-22T09:09:53Z</time>
      </trkpt>
      <trkpt lat="45.62038" lon="4.591">
        <ele>860</ele>
        <time>2019-04-22T09:10:13Z</time>
      </trkpt>
      <trkpt lat="45.6204" lon="4.59113">
        <ele>860</ele>
        <time>2019-04-22T09:10:22Z</time>
      </trkpt>
      <trkpt lat="45.62041" lon="4.59122">
        <ele>860</ele>
        <time>2019-04-22T09:11:02Z</time>
      </trkpt>
      <trkpt lat="45.62041" lon="4.59128">
        <ele>860</ele>
        <time>2019-04-22T09:11:06Z</time>
      </trkpt>
      <trkpt lat="45.62044" lon="4.59134">
        <ele>860</ele>
        <time>2019-04-22T09:11:11Z</time>
      </trkpt>
      <trkpt lat="45.62047" lon="4.5914">
        <ele>859</ele>
        <time>2019-04-22T09:11:15Z</time>
      </trkpt>
      <trkpt lat="45.62053" lon="4.59181">
        <ele>858</ele>
        <time>2019-04-22T09:11:46Z</time>
      </trkpt>
      <trkpt lat="45.62055" lon="4.5919">
        <ele>858</ele>
        <time>2019-04-22T09:11:53Z</time>
      </trkpt>
      <trkpt lat="45.62063" lon="4.59231">
        <ele>858</ele>
        <time>2019-04-22T09:12:18Z</time>
      </trkpt>
      <trkpt lat="45.62065" lon="4.59238">
        <ele>858</ele>
        <time>2019-04-22T09:12:23Z</time>
      </trkpt>
      <trkpt lat="45.62074" lon="4.59292">
        <ele>858</ele>
        <time>2019-04-22T09:12:55Z</time>
      </trkpt>
      <trkpt lat="45.62086" lon="4.59347">
        <ele>860</ele>
        <time>2019-04-22T09:13:28Z</time>
      </trkpt>
      <trkpt lat="45.62093" lon="4.59381">
        <ele>861</ele>
        <time>2019-04-22T09:13:49Z</time>
      </trkpt>
      <trkpt lat="45.62102" lon="4.59399">
        <ele>861</ele>
        <time>2019-04-22T09:14:06Z</time>
      </trkpt>
      <trkpt lat="45.62127" lon="4.59436">
        <ele>858</ele>
        <time>2019-04-22T09:14:38Z</time>
      </trkpt>
      <trkpt lat="45.62137" lon="4.59446">
        <ele>857</ele>
        <time>2019-04-22T09:14:50Z</time>
      </trkpt>
      <trkpt lat="45.62142" lon="4.59449">
        <ele>857</ele>
        <time>2019-04-22T09:14:55Z</time>
      </trkpt>
      <trkpt lat="45.62162" lon="4.59471">
        <ele>855</ele>
        <time>2019-04-22T09:15:17Z</time>
      </trkpt>
      <trkpt lat="45.62171" lon="4.59478">
        <ele>854</ele>
        <time>2019-04-22T09:15:25Z</time>
      </trkpt>
      <trkpt lat="45.62191" lon="4.59507">
        <ele>851</ele>
        <time>2019-04-22T09:15:49Z</time>
      </trkpt>
      <trkpt lat="45.6221" lon="4.59555">
        <ele>848</ele>
        <time>2019-04-22T09:16:23Z</time>
      </trkpt>
      <trkpt lat="45.62212" lon="4.59562">
        <ele>847</ele>
        <time>2019-04-22T09:16:45Z</time>
      </trkpt>
      <trkpt lat="45.62217" lon="4.59582">
        <ele>847</ele>
        <time>2019-04-22T09:17:23Z</time>
      </trkpt>
      <trkpt lat="45.62224" lon="4.59636">
        <ele>844</ele>
        <time>2019-04-22T09:17:54Z</time>
      </trkpt>
      <trkpt lat="45.62224" lon="4.59643">
        <ele>843</ele>
        <time>2019-04-22T09:17:58Z</time>
      </trkpt>
      <trkpt lat="45.62225" lon="4.59656">
        <ele>843</ele>
        <time>2019-04-22T09:18:06Z</time>
      </trkpt>
      <trkpt lat="45.62223" lon="4.59707">
        <ele>842</ele>
        <time>2019-04-22T09:18:37Z</time>
      </trkpt>
      <trkpt lat="45.62224" lon="4.5972">
        <ele>841</ele>
        <time>2019-04-22T09:18:45Z</time>
      </trkpt>
      <trkpt lat="45.62226" lon="4.59726">
        <ele>841</ele>
        <time>2019-04-22T09:18:49Z</time>
      </trkpt>
      <trkpt lat="45.62228" lon="4.59733">
        <ele>840</ele>
        <time>2019-04-22T09:18:54Z</time>
      </trkpt>
      <trkpt lat="45.62231" lon="4.59739">
        <ele>840</ele>
        <time>2019-04-22T09:18:58Z</time>
      </trkpt>
      <trkpt lat="45.62258" lon="4.59779">
        <ele>837</ele>
        <time>2019-04-22T09:19:32Z</time>
      </trkpt>
      <trkpt lat="45.62282" lon="4.59818">
        <ele>834</ele>
        <time>2019-04-22T09:20:04Z</time>
      </trkpt>
      <trkpt lat="45.62305" lon="4.59855">
        <ele>831</ele>
        <time>2019-04-22T09:20:35Z</time>
      </trkpt>
      <trkpt lat="45.62329" lon="4.599">
        <ele>828</ele>
        <time>2019-04-22T09:21:21Z</time>
      </trkpt>
      <trkpt lat="45.62354" lon="4.59934">
        <ele>826</ele>
        <time>2019-04-22T09:21:51Z</time>
      </trkpt>
      <trkpt lat="45.62382" lon="4.59965">
        <ele>825</ele>
        <time>2019-04-22T09:22:22Z</time>
      </trkpt>
      <trkpt lat="45.62405" lon="4.59993">
        <ele>824</ele>
        <time>2019-04-22T09:22:48Z</time>
      </trkpt>
      <trkpt lat="45.62412" lon="4.60004">
        <ele>825</ele>
        <time>2019-04-22T09:22:57Z</time>
      </trkpt>
      <trkpt lat="45.62442" lon="4.60036">
        <ele>826</ele>
        <time>2019-04-22T09:23:30Z</time>
      </trkpt>
      <trkpt lat="45.62454" lon="4.6004">
        <ele>826</ele>
        <time>2019-04-22T09:23:41Z</time>
      </trkpt>
      <trkpt lat="45.62479" lon="4.60043">
        <ele>827</ele>
        <time>2019-04-22T09:24:02Z</time>
      </trkpt>
      <trkpt lat="45.62488" lon="4.60042">
        <ele>827</ele>
        <time>2019-04-22T09:24:11Z</time>
      </trkpt>
      <trkpt lat="45.62492" lon="4.60039">
        <ele>827</ele>
        <time>2019-04-22T09:24:15Z</time>
      </trkpt>
      <trkpt lat="45.6253" lon="4.60023">
        <ele>826</ele>
        <time>2019-04-22T09:24:47Z</time>
      </trkpt>
      <trkpt lat="45.62564" lon="4.60006">
        <ele>826</ele>
        <time>2019-04-22T09:25:22Z</time>
      </trkpt>
      <trkpt lat="45.62599" lon="4.59993">
        <ele>826</ele>
        <time>2019-04-22T09:25:54Z</time>
      </trkpt>
      <trkpt lat="45.62614" lon="4.5999">
        <ele>825</ele>
        <time>2019-04-22T09:26:06Z</time>
      </trkpt>
      <trkpt lat="45.62655" lon="4.59989">
        <ele>825</ele>
        <time>2019-04-22T09:26:40Z</time>
      </trkpt>
      <trkpt lat="45.6267" lon="4.59987">
        <ele>825</ele>
        <time>2019-04-22T09:26:53Z</time>
      </trkpt>
      <trkpt lat="45.62699" lon="4.5999">
        <ele>825</ele>
        <time>2019-04-22T09:27:18Z</time>
      </trkpt>
      <trkpt lat="45.62707" lon="4.59991">
        <ele>826</ele>
        <time>2019-04-22T09:28:02Z</time>
      </trkpt>
      <trkpt lat="45.62722" lon="4.59991">
        <ele>825</ele>
        <time>2019-04-22T09:28:15Z</time>
      </trkpt>
      <trkpt lat="45.62727" lon="4.5999">
        <ele>826</ele>
        <time>2019-04-22T09:28:20Z</time>
      </trkpt>
      <trkpt lat="45.62743" lon="4.5999">
        <ele>827</ele>
        <time>2019-04-22T09:28:35Z</time>
      </trkpt>
      <trkpt lat="45.62753" lon="4.59989">
        <ele>827</ele>
        <time>2019-04-22T09:28:45Z</time>
      </trkpt>
      <trkpt lat="45.62763" lon="4.59989">
        <ele>828</ele>
        <time>2019-04-22T09:28:55Z</time>
      </trkpt>
      <trkpt lat="45.62799" lon="4.59989">
        <ele>829</ele>
        <time>2019-04-22T09:29:29Z</time>
      </trkpt>
      <trkpt lat="45.62822" lon="4.5999">
        <ele>831</ele>
        <time>2019-04-22T09:30:10Z</time>
      </trkpt>
      <trkpt lat="45.62839" lon="4.59987">
        <ele>831</ele>
        <time>2019-04-22T09:30:33Z</time>
      </trkpt>
      <trkpt lat="45.62844" lon="4.59987">
        <ele>831</ele>
        <time>2019-04-22T09:30:38Z</time>
      </trkpt>
      <trkpt lat="45.62858" lon="4.59988">
        <ele>832</ele>
        <time>2019-04-22T09:30:51Z</time>
      </trkpt>
      <trkpt lat="45.62869" lon="4.59989">
        <ele>833</ele>
        <time>2019-04-22T09:31:01Z</time>
      </trkpt>
      <trkpt lat="45.62873" lon="4.59988">
        <ele>833</ele>
        <time>2019-04-22T09:31:06Z</time>
      </trkpt>
      <trkpt lat="45.6288" lon="4.5999">
        <ele>833</ele>
        <time>2019-04-22T09:31:21Z</time>
      </trkpt>
      <trkpt lat="45.62885" lon="4.59989">
        <ele>833</ele>
        <time>2019-04-22T09:31:26Z</time>
      </trkpt>
      <trkpt lat="45.62917" lon="4.59995">
        <ele>835</ele>
        <time>2019-04-22T09:31:59Z</time>
      </trkpt>
      <trkpt lat="45.62933" lon="4.59998">
        <ele>836</ele>
        <time>2019-04-22T09:32:17Z</time>
      </trkpt>
      <trkpt lat="45.62939" lon="4.60002">
        <ele>837</ele>
        <time>2019-04-22T09:32:24Z</time>
      </trkpt>
      <trkpt lat="45.62959" lon="4.60027">
        <ele>838</ele>
        <time>2019-04-22T09:32:51Z</time>
      </trkpt>
      <trkpt lat="45.62966" lon="4.60037">
        <ele>839</ele>
        <time>2019-04-22T09:33:04Z</time>
      </trkpt>
      <trkpt lat="45.62975" lon="4.60041">
        <ele>840</ele>
        <time>2019-04-22T09:33:21Z</time>
      </trkpt>
      <trkpt lat="45.62982" lon="4.60035">
        <ele>841</ele>
        <time>2019-04-22T09:33:30Z</time>
      </trkpt>
      <trkpt lat="45.62984" lon="4.6003">
        <ele>841</ele>
        <time>2019-04-22T09:33:34Z</time>
      </trkpt>
      <trkpt lat="45.62991" lon="4.60017">
        <ele>842</ele>
        <time>2019-04-22T09:33:53Z</time>
      </trkpt>
      <trkpt lat="45.62994" lon="4.60006">
        <ele>843</ele>
        <time>2019-04-22T09:34:05Z</time>
      </trkpt>
      <trkpt lat="45.63008" lon="4.59966">
        <ele>846</ele>
        <time>2019-04-22T09:34:39Z</time>
      </trkpt>
      <trkpt lat="45.6301" lon="4.59959">
        <ele>846</ele>
        <time>2019-04-22T09:34:45Z</time>
      </trkpt>
      <trkpt lat="45.63015" lon="4.59947">
        <ele>847</ele>
        <time>2019-04-22T09:34:56Z</time>
      </trkpt>
      <trkpt lat="45.63022" lon="4.59907">
        <ele>849</ele>
        <time>2019-04-22T09:35:33Z</time>
      </trkpt>
      <trkpt lat="45.63023" lon="4.599">
        <ele>850</ele>
        <time>2019-04-22T09:35:39Z</time>
      </trkpt>
      <trkpt lat="45.63032" lon="4.59876">
        <ele>852</ele>
        <time>2019-04-22T09:36:03Z</time>
      </trkpt>
      <trkpt lat="45.63035" lon="4.59868">
        <ele>853</ele>
        <time>2019-04-22T09:36:11Z</time>
      </trkpt>
      <trkpt lat="45.63038" lon="4.59847">
        <ele>855</ele>
        <time>2019-04-22T09:37:18Z</time>
      </trkpt>
      <trkpt lat="45.6304" lon="4.59838">
        <ele>855</ele>
        <time>2019-04-22T09:37:30Z</time>
      </trkpt>
      <trkpt lat="45.63058" lon="4.59809">
        <ele>859</ele>
        <time>2019-04-22T09:38:03Z</time>
      </trkpt>
      <trkpt lat="45.63068" lon="4.59792">
        <ele>861</ele>
        <time>2019-04-22T09:38:20Z</time>
      </trkpt>
      <trkpt lat="45.63081" lon="4.59773">
        <ele>863</ele>
        <time>2019-04-22T09:38:58Z</time>
      </trkpt>
      <trkpt lat="45.63083" lon="4.59767">
        <ele>864</ele>
        <time>2019-04-22T09:39:03Z</time>
      </trkpt>
      <trkpt lat="45.63086" lon="4.59756">
        <ele>864</ele>
        <time>2019-04-22T09:39:14Z</time>
      </trkpt>
      <trkpt lat="45.63102" lon="4.59715">
        <ele>866</ele>
        <time>2019-04-22T09:39:48Z</time>
      </trkpt>
      <trkpt lat="45.63119" lon="4.59689">
        <ele>868</ele>
        <time>2019-04-22T09:40:14Z</time>
      </trkpt>
      <trkpt lat="45.63125" lon="4.59688">
        <ele>869</ele>
        <time>2019-04-22T09:40:26Z</time>
      </trkpt>
      <trkpt lat="45.63149" lon="4.59691">
        <ele>871</ele>
        <time>2019-04-22T09:40:52Z</time>
      </trkpt>
      <trkpt lat="45.63184" lon="4.59698">
        <ele>871</ele>
        <time>2019-04-22T09:41:27Z</time>
      </trkpt>
      <trkpt lat="45.63189" lon="4.59698">
        <ele>871</ele>
        <time>2019-04-22T09:41:31Z</time>
      </trkpt>
      <trkpt lat="45.63199" lon="4.59696">
        <ele>871</ele>
        <time>2019-04-22T09:41:41Z</time>
      </trkpt>
      <trkpt lat="45.63209" lon="4.59696">
        <ele>871</ele>
        <time>2019-04-22T09:41:51Z</time>
      </trkpt>
      <trkpt lat="45.63243" lon="4.59686">
        <ele>871</ele>
        <time>2019-04-22T09:42:22Z</time>
      </trkpt>
      <trkpt lat="45.63248" lon="4.59683">
        <ele>871</ele>
        <time>2019-04-22T09:42:27Z</time>
      </trkpt>
      <trkpt lat="45.63283" lon="4.59677">
        <ele>871</ele>
        <time>2019-04-22T09:42:59Z</time>
      </trkpt>
      <trkpt lat="45.63288" lon="4.59675">
        <ele>870</ele>
        <time>2019-04-22T09:43:04Z</time>
      </trkpt>
      <trkpt lat="45.63292" lon="4.59675">
        <ele>870</ele>
        <time>2019-04-22T09:43:08Z</time>
      </trkpt>
      <trkpt lat="45.6333" lon="4.59667">
        <ele>870</ele>
        <time>2019-04-22T09:43:45Z</time>
      </trkpt>
      <trkpt lat="45.6334" lon="4.59666">
        <ele>870</ele>
        <time>2019-04-22T09:43:55Z</time>
      </trkpt>
      <trkpt lat="45.63373" lon="4.5967">
        <ele>871</ele>
        <time>2019-04-22T09:44:27Z</time>
      </trkpt>
      <trkpt lat="45.63406" lon="4.59661">
        <ele>869</ele>
        <time>2019-04-22T09:45:00Z</time>
      </trkpt>
      <trkpt lat="45.63438" lon="4.59656">
        <ele>868</ele>
        <time>2019-04-22T09:45:31Z</time>
      </trkpt>
      <trkpt lat="45.63463" lon="4.59657">
        <ele>867</ele>
        <time>2019-04-22T09:45:56Z</time>
      </trkpt>
      <trkpt lat="45.635" lon="4.59666">
        <ele>866</ele>
        <time>2019-04-22T09:46:32Z</time>
      </trkpt>
      <trkpt lat="45.63531" lon="4.59678">
        <ele>864</ele>
        <time>2019-04-22T09:47:06Z</time>
      </trkpt>
      <trkpt lat="45.63551" lon="4.59674">
        <ele>862</ele>
        <time>2019-04-22T09:47:28Z</time>
      </trkpt>
      <trkpt lat="45.63567" lon="4.59661">
        <ele>860</ele>
        <time>2019-04-22T09:47:47Z</time>
      </trkpt>
      <trkpt lat="45.63569" lon="4.59655">
        <ele>860</ele>
        <time>2019-04-22T09:47:52Z</time>
      </trkpt>
      <trkpt lat="45.6357" lon="4.59648">
        <ele>860</ele>
        <time>2019-04-22T09:47:57Z</time>
      </trkpt>
      <trkpt lat="45.63569" lon="4.59641">
        <ele>861</ele>
        <time>2019-04-22T09:48:01Z</time>
      </trkpt>
      <trkpt lat="45.63566" lon="4.59635">
        <ele>861</ele>
        <time>2019-04-22T09:48:06Z</time>
      </trkpt>
      <trkpt lat="45.63544" lon="4.59597">
        <ele>860</ele>
        <time>2019-04-22T09:48:37Z</time>
      </trkpt>
      <trkpt lat="45.6353" lon="4.59577">
        <ele>859</ele>
        <time>2019-04-22T09:48:54Z</time>
      </trkpt>
      <trkpt lat="45.63526" lon="4.59564">
        <ele>859</ele>
        <time>2019-04-22T09:49:04Z</time>
      </trkpt>
      <trkpt lat="45.63525" lon="4.59552">
        <ele>859</ele>
        <time>2019-04-22T09:50:01Z</time>
      </trkpt>
      <trkpt lat="45.6352" lon="4.5953">
        <ele>858</ele>
        <time>2019-04-22T09:50:16Z</time>
      </trkpt>
      <trkpt lat="45.63517" lon="4.59488">
        <ele>856</ele>
        <time>2019-04-22T09:50:41Z</time>
      </trkpt>
      <trkpt lat="45.6351" lon="4.59469">
        <ele>855</ele>
        <time>2019-04-22T09:50:55Z</time>
      </trkpt>
      <trkpt lat="45.63509" lon="4.59457">
        <ele>855</ele>
        <time>2019-04-22T09:51:05Z</time>
      </trkpt>
      <trkpt lat="45.63511" lon="4.59409">
        <ele>856</ele>
        <time>2019-04-22T09:51:40Z</time>
      </trkpt>
      <trkpt lat="45.63512" lon="4.59402">
        <ele>856</ele>
        <time>2019-04-22T09:51:45Z</time>
      </trkpt>
      <trkpt lat="45.63512" lon="4.59395">
        <ele>856</ele>
        <time>2019-04-22T09:51:55Z</time>
      </trkpt>
      <trkpt lat="45.63514" lon="4.59365">
        <ele>857</ele>
        <time>2019-04-22T09:52:29Z</time>
      </trkpt>
      <trkpt lat="45.63515" lon="4.59329">
        <ele>858</ele>
        <time>2019-04-22T09:52:52Z</time>
      </trkpt>
      <trkpt lat="45.63518" lon="4.59277">
        <ele>860</ele>
        <time>2019-04-22T09:53:25Z</time>
      </trkpt>
      <trkpt lat="45.63516" lon="4.59228">
        <ele>861</ele>
        <time>2019-04-22T09:53:56Z</time>
      </trkpt>
      <trkpt lat="45.63513" lon="4.59178">
        <ele>861</ele>
        <time>2019-04-22T09:54:27Z</time>
      </trkpt>
      <trkpt lat="45.63513" lon="4.59164">
        <ele>862</ele>
        <time>2019-04-22T09:54:36Z</time>
      </trkpt>
      <trkpt lat="45.63515" lon="4.59157">
        <ele>862</ele>
        <time>2019-04-22T09:54:41Z</time>
      </trkpt>
      <trkpt lat="45.63534" lon="4.59118">
        <ele>862</ele>
        <time>2019-04-22T09:55:14Z</time>
      </trkpt>
      <trkpt lat="45.63546" lon="4.59103">
        <ele>863</ele>
        <time>2019-04-22T09:56:01Z</time>
      </trkpt>
      <trkpt lat="45.63549" lon="4.59098">
        <ele>863</ele>
        <time>2019-04-22T09:56:07Z</time>
      </trkpt>
      <trkpt lat="45.63549" lon="4.59103">
        <ele>862</ele>
        <time>2019-04-22T10:01:37Z</time>
      </trkpt>
      <trkpt lat="45.63545" lon="4.59108">
        <ele>862</ele>
        <time>2019-04-22T10:01:49Z</time>
      </trkpt>
      <trkpt lat="45.6354" lon="4.59117">
        <ele>862</ele>
        <time>2019-04-22T10:01:59Z</time>
      </trkpt>
      <trkpt lat="45.63531" lon="4.59147">
        <ele>864</ele>
        <time>2019-04-22T10:02:24Z</time>
      </trkpt>
      <trkpt lat="45.63529" lon="4.59163">
        <ele>866</ele>
        <time>2019-04-22T10:02:37Z</time>
      </trkpt>
      <trkpt lat="45.63531" lon="4.59172">
        <ele>866</ele>
        <time>2019-04-22T10:02:44Z</time>
      </trkpt>
      <trkpt lat="45.63535" lon="4.59181">
        <ele>867</ele>
        <time>2019-04-22T10:02:52Z</time>
      </trkpt>
      <trkpt lat="45.63543" lon="4.59193">
        <ele>869</ele>
        <time>2019-04-22T10:03:05Z</time>
      </trkpt>
      <trkpt lat="45.63554" lon="4.59213">
        <ele>872</ele>
        <time>2019-04-22T10:03:31Z</time>
      </trkpt>
      <trkpt lat="45.63562" lon="4.59221">
        <ele>872</ele>
        <time>2019-04-22T10:05:43Z</time>
      </trkpt>
      <trkpt lat="45.6358" lon="4.59246">
        <ele>876</ele>
        <time>2019-04-22T10:06:19Z</time>
      </trkpt>
      <trkpt lat="45.63586" lon="4.59247">
        <ele>877</ele>
        <time>2019-04-22T10:06:35Z</time>
      </trkpt>
      <trkpt lat="45.63596" lon="4.5924">
        <ele>878</ele>
        <time>2019-04-22T10:06:58Z</time>
      </trkpt>
      <trkpt lat="45.63612" lon="4.5922">
        <ele>880</ele>
        <time>2019-04-22T10:07:24Z</time>
      </trkpt>
      <trkpt lat="45.63622" lon="4.59211">
        <ele>880</ele>
        <time>2019-04-22T10:07:36Z</time>
      </trkpt>
      <trkpt lat="45.63639" lon="4.59188">
        <ele>881</ele>
        <time>2019-04-22T10:08:02Z</time>
      </trkpt>
      <trkpt lat="45.63643" lon="4.59186">
        <ele>881</ele>
        <time>2019-04-22T10:08:06Z</time>
      </trkpt>
      <trkpt lat="45.6365" lon="4.59178">
        <ele>881</ele>
        <time>2019-04-22T10:08:18Z</time>
      </trkpt>
      <trkpt lat="45.63658" lon="4.59177">
        <ele>883</ele>
        <time>2019-04-22T10:08:33Z</time>
      </trkpt>
      <trkpt lat="45.63662" lon="4.59185">
        <ele>884</ele>
        <time>2019-04-22T10:08:47Z</time>
      </trkpt>
      <trkpt lat="45.63668" lon="4.59192">
        <ele>886</ele>
        <time>2019-04-22T10:08:59Z</time>
      </trkpt>
      <trkpt lat="45.6367" lon="4.59201">
        <ele>887</ele>
        <time>2019-04-22T10:09:09Z</time>
      </trkpt>
      <trkpt lat="45.63672" lon="4.59206">
        <ele>888</ele>
        <time>2019-04-22T10:09:19Z</time>
      </trkpt>
      <trkpt lat="45.63674" lon="4.59212">
        <ele>889</ele>
        <time>2019-04-22T10:10:07Z</time>
      </trkpt>
      <trkpt lat="45.63681" lon="4.59212">
        <ele>890</ele>
        <time>2019-04-22T10:10:19Z</time>
      </trkpt>
      <trkpt lat="45.63685" lon="4.59231">
        <ele>894</ele>
        <time>2019-04-22T10:11:19Z</time>
      </trkpt>
      <trkpt lat="45.63687" lon="4.59239">
        <ele>896</ele>
        <time>2019-04-22T10:11:31Z</time>
      </trkpt>
      <trkpt lat="45.63685" lon="4.59251">
        <ele>897</ele>
        <time>2019-04-22T10:11:42Z</time>
      </trkpt>
      <trkpt lat="45.63686" lon="4.59257">
        <ele>899</ele>
        <time>2019-04-22T10:11:50Z</time>
      </trkpt>
      <trkpt lat="45.63689" lon="4.59263">
        <ele>899</ele>
        <time>2019-04-22T10:11:56Z</time>
      </trkpt>
      <trkpt lat="45.63692" lon="4.59272">
        <ele>901</ele>
        <time>2019-04-22T10:12:20Z</time>
      </trkpt>
      <trkpt lat="45.637" lon="4.59284">
        <ele>904</ele>
        <time>2019-04-22T10:12:38Z</time>
      </trkpt>
      <trkpt lat="45.63705" lon="4.59296">
        <ele>907</ele>
        <time>2019-04-22T10:12:58Z</time>
      </trkpt>
      <trkpt lat="45.63709" lon="4.59304">
        <ele>908</ele>
        <time>2019-04-22T10:13:09Z</time>
      </trkpt>
      <trkpt lat="45.63715" lon="4.5931">
        <ele>910</ele>
        <time>2019-04-22T10:13:21Z</time>
      </trkpt>
      <trkpt lat="45.63722" lon="4.5933">
        <ele>914</ele>
        <time>2019-04-22T10:13:57Z</time>
      </trkpt>
      <trkpt lat="45.63725" lon="4.59339">
        <ele>916</ele>
        <time>2019-04-22T10:14:09Z</time>
      </trkpt>
      <trkpt lat="45.6374" lon="4.59362">
        <ele>918</ele>
        <time>2019-04-22T10:14:36Z</time>
      </trkpt>
      <trkpt lat="45.63755" lon="4.59375">
        <ele>921</ele>
        <time>2019-04-22T10:15:02Z</time>
      </trkpt>
      <trkpt lat="45.63757" lon="4.59381">
        <ele>922</ele>
        <time>2019-04-22T10:15:14Z</time>
      </trkpt>
      <trkpt lat="45.63756" lon="4.59389">
        <ele>922</ele>
        <time>2019-04-22T10:15:32Z</time>
      </trkpt>
      <trkpt lat="45.63752" lon="4.59395">
        <ele>922</ele>
        <time>2019-04-22T10:15:44Z</time>
      </trkpt>
      <trkpt lat="45.63748" lon="4.59402">
        <ele>922</ele>
        <time>2019-04-22T10:15:56Z</time>
      </trkpt>
      <trkpt lat="45.63751" lon="4.59399">
        <ele>920</ele>
        <time>2019-04-22T10:19:22Z</time>
      </trkpt>
      <trkpt lat="45.63757" lon="4.59403">
        <ele>920</ele>
        <time>2019-04-22T10:19:33Z</time>
      </trkpt>
      <trkpt lat="45.63763" lon="4.59402">
        <ele>921</ele>
        <time>2019-04-22T10:21:27Z</time>
      </trkpt>
      <trkpt lat="45.63766" lon="4.59398">
        <ele>922</ele>
        <time>2019-04-22T11:17:54Z</time>
      </trkpt>
      <trkpt lat="45.63763" lon="4.59398">
        <ele>923</ele>
        <time>2019-04-22T11:18:42Z</time>
      </trkpt>
      <trkpt lat="45.63759" lon="4.59401">
        <ele>923</ele>
        <time>2019-04-22T11:18:54Z</time>
      </trkpt>
      <trkpt lat="45.63758" lon="4.59401">
        <ele>922</ele>
        <time>2019-04-22T11:21:50Z</time>
      </trkpt>
      <trkpt lat="45.63764" lon="4.59398">
        <ele>922</ele>
        <time>2019-04-22T11:22:08Z</time>
      </trkpt>
      <trkpt lat="45.63769" lon="4.59405">
        <ele>922</ele>
        <time>2019-04-22T11:22:37Z</time>
      </trkpt>
      <trkpt lat="45.63774" lon="4.59402">
        <ele>922</ele>
        <time>2019-04-22T11:22:50Z</time>
      </trkpt>
      <trkpt lat="45.63781" lon="4.59394">
        <ele>922</ele>
        <time>2019-04-22T11:23:01Z</time>
      </trkpt>
      <trkpt lat="45.63787" lon="4.59394">
        <ele>923</ele>
        <time>2019-04-22T11:23:18Z</time>
      </trkpt>
      <trkpt lat="45.63793" lon="4.59386">
        <ele>924</ele>
        <time>2019-04-22T11:23:30Z</time>
      </trkpt>
      <trkpt lat="45.63798" lon="4.59384">
        <ele>925</ele>
        <time>2019-04-22T11:23:35Z</time>
      </trkpt>
      <trkpt lat="45.63815" lon="4.59367">
        <ele>927</ele>
        <time>2019-04-22T11:24:02Z</time>
      </trkpt>
      <trkpt lat="45.63817" lon="4.59359">
        <ele>928</ele>
        <time>2019-04-22T11:24:14Z</time>
      </trkpt>
      <trkpt lat="45.63823" lon="4.59351">
        <ele>929</ele>
        <time>2019-04-22T11:24:26Z</time>
      </trkpt>
      <trkpt lat="45.63828" lon="4.59326">
        <ele>930</ele>
        <time>2019-04-22T11:24:52Z</time>
      </trkpt>
      <trkpt lat="45.63826" lon="4.59323">
        <ele>930</ele>
        <time>2019-04-22T11:27:45Z</time>
      </trkpt>
      <trkpt lat="45.63823" lon="4.59331">
        <ele>930</ele>
        <time>2019-04-22T11:27:52Z</time>
      </trkpt>
      <trkpt lat="45.63824" lon="4.5934">
        <ele>929</ele>
        <time>2019-04-22T11:28:02Z</time>
      </trkpt>
      <trkpt lat="45.63819" lon="4.59348">
        <ele>929</ele>
        <time>2019-04-22T11:28:14Z</time>
      </trkpt>
      <trkpt lat="45.63816" lon="4.59357">
        <ele>928</ele>
        <time>2019-04-22T11:28:26Z</time>
      </trkpt>
      <trkpt lat="45.63816" lon="4.59368">
        <ele>927</ele>
        <time>2019-04-22T11:28:38Z</time>
      </trkpt>
      <trkpt lat="45.63808" lon="4.59372">
        <ele>926</ele>
        <time>2019-04-22T11:28:50Z</time>
      </trkpt>
      <trkpt lat="45.63804" lon="4.59376">
        <ele>925</ele>
        <time>2019-04-22T11:28:56Z</time>
      </trkpt>
      <trkpt lat="45.6379" lon="4.59385">
        <ele>924</ele>
        <time>2019-04-22T11:29:19Z</time>
      </trkpt>
      <trkpt lat="45.63785" lon="4.59397">
        <ele>923</ele>
        <time>2019-04-22T11:29:33Z</time>
      </trkpt>
      <trkpt lat="45.63781" lon="4.59401">
        <ele>922</ele>
        <time>2019-04-22T11:29:39Z</time>
      </trkpt>
      <trkpt lat="45.63778" lon="4.59407">
        <ele>922</ele>
        <time>2019-04-22T11:29:45Z</time>
      </trkpt>
      <trkpt lat="45.63778" lon="4.59414">
        <ele>921</ele>
        <time>2019-04-22T11:29:50Z</time>
      </trkpt>
      <trkpt lat="45.63784" lon="4.59425">
        <ele>920</ele>
        <time>2019-04-22T11:30:00Z</time>
      </trkpt>
      <trkpt lat="45.63788" lon="4.59429">
        <ele>920</ele>
        <time>2019-04-22T11:30:14Z</time>
      </trkpt>
      <trkpt lat="45.63792" lon="4.59437">
        <ele>919</ele>
        <time>2019-04-22T11:30:25Z</time>
      </trkpt>
      <trkpt lat="45.63794" lon="4.59444">
        <ele>919</ele>
        <time>2019-04-22T11:30:47Z</time>
      </trkpt>
      <trkpt lat="45.63797" lon="4.59452">
        <ele>918</ele>
        <time>2019-04-22T11:30:59Z</time>
      </trkpt>
      <trkpt lat="45.63793" lon="4.59453">
        <ele>912</ele>
        <time>2019-04-22T11:40:57Z</time>
      </trkpt>
      <trkpt lat="45.63785" lon="4.59442">
        <ele>912</ele>
        <time>2019-04-22T11:41:12Z</time>
      </trkpt>
      <trkpt lat="45.63778" lon="4.59435">
        <ele>913</ele>
        <time>2019-04-22T11:41:23Z</time>
      </trkpt>
      <trkpt lat="45.63774" lon="4.59427">
        <ele>914</ele>
        <time>2019-04-22T11:41:30Z</time>
      </trkpt>
      <trkpt lat="45.63767" lon="4.59417">
        <ele>915</ele>
        <time>2019-04-22T11:41:40Z</time>
      </trkpt>
      <trkpt lat="45.63763" lon="4.59414">
        <ele>916</ele>
        <time>2019-04-22T11:41:44Z</time>
      </trkpt>
      <trkpt lat="45.63763" lon="4.59405">
        <ele>918</ele>
        <time>2019-04-22T11:41:58Z</time>
      </trkpt>
      <trkpt lat="45.63765" lon="4.59393">
        <ele>918</ele>
        <time>2019-04-22T11:42:10Z</time>
      </trkpt>
      <trkpt lat="45.63763" lon="4.59387">
        <ele>918</ele>
        <time>2019-04-22T11:42:16Z</time>
      </trkpt>
      <trkpt lat="45.6375" lon="4.59377">
        <ele>916</ele>
        <time>2019-04-22T11:42:34Z</time>
      </trkpt>
      <trkpt lat="45.63744" lon="4.59365">
        <ele>915</ele>
        <time>2019-04-22T11:42:42Z</time>
      </trkpt>
      <trkpt lat="45.63723" lon="4.59343">
        <ele>911</ele>
        <time>2019-04-22T11:43:17Z</time>
      </trkpt>
      <trkpt lat="45.63719" lon="4.59337">
        <ele>910</ele>
        <time>2019-04-22T11:43:25Z</time>
      </trkpt>
      <trkpt lat="45.63718" lon="4.59327">
        <ele>908</ele>
        <time>2019-04-22T11:43:37Z</time>
      </trkpt>
      <trkpt lat="45.63711" lon="4.5931">
        <ele>905</ele>
        <time>2019-04-22T11:43:53Z</time>
      </trkpt>
      <trkpt lat="45.63709" lon="4.59303">
        <ele>904</ele>
        <time>2019-04-22T11:44:03Z</time>
      </trkpt>
      <trkpt lat="45.63702" lon="4.5929">
        <ele>902</ele>
        <time>2019-04-22T11:44:16Z</time>
      </trkpt>
      <trkpt lat="45.63696" lon="4.59283">
        <ele>900</ele>
        <time>2019-04-22T11:44:28Z</time>
      </trkpt>
      <trkpt lat="45.63691" lon="4.59273">
        <ele>898</ele>
        <time>2019-04-22T11:44:39Z</time>
      </trkpt>
      <trkpt lat="45.63688" lon="4.59265">
        <ele>897</ele>
        <time>2019-04-22T11:44:46Z</time>
      </trkpt>
      <trkpt lat="45.63685" lon="4.5926">
        <ele>896</ele>
        <time>2019-04-22T11:44:54Z</time>
      </trkpt>
      <trkpt lat="45.63687" lon="4.59252">
        <ele>895</ele>
        <time>2019-04-22T11:45:06Z</time>
      </trkpt>
      <trkpt lat="45.63687" lon="4.59246">
        <ele>893</ele>
        <time>2019-04-22T11:45:18Z</time>
      </trkpt>
      <trkpt lat="45.63687" lon="4.59238">
        <ele>892</ele>
        <time>2019-04-22T11:45:23Z</time>
      </trkpt>
      <trkpt lat="45.63682" lon="4.59218">
        <ele>889</ele>
        <time>2019-04-22T11:45:42Z</time>
      </trkpt>
      <trkpt lat="45.63679" lon="4.59213">
        <ele>888</ele>
        <time>2019-04-22T11:45:48Z</time>
      </trkpt>
      <trkpt lat="45.63672" lon="4.59204">
        <ele>887</ele>
        <time>2019-04-22T11:46:00Z</time>
      </trkpt>
      <trkpt lat="45.63665" lon="4.59191">
        <ele>884</ele>
        <time>2019-04-22T11:46:24Z</time>
      </trkpt>
      <trkpt lat="45.63663" lon="4.59181">
        <ele>882</ele>
        <time>2019-04-22T11:46:36Z</time>
      </trkpt>
      <trkpt lat="45.63659" lon="4.59176">
        <ele>881</ele>
        <time>2019-04-22T11:46:42Z</time>
      </trkpt>
      <trkpt lat="45.6365" lon="4.59174">
        <ele>880</ele>
        <time>2019-04-22T11:46:53Z</time>
      </trkpt>
      <trkpt lat="45.63644" lon="4.59175">
        <ele>879</ele>
        <time>2019-04-22T11:47:01Z</time>
      </trkpt>
      <trkpt lat="45.6364" lon="4.5918">
        <ele>879</ele>
        <time>2019-04-22T11:47:07Z</time>
      </trkpt>
      <trkpt lat="45.63636" lon="4.59183">
        <ele>879</ele>
        <time>2019-04-22T11:47:13Z</time>
      </trkpt>
      <trkpt lat="45.63626" lon="4.59198">
        <ele>878</ele>
        <time>2019-04-22T11:47:30Z</time>
      </trkpt>
      <trkpt lat="45.63618" lon="4.59206">
        <ele>878</ele>
        <time>2019-04-22T11:47:40Z</time>
      </trkpt>
      <trkpt lat="45.63614" lon="4.59214">
        <ele>877</ele>
        <time>2019-04-22T11:47:47Z</time>
      </trkpt>
      <trkpt lat="45.63607" lon="4.5922">
        <ele>877</ele>
        <time>2019-04-22T11:47:55Z</time>
      </trkpt>
      <trkpt lat="45.63605" lon="4.59226">
        <ele>877</ele>
        <time>2019-04-22T11:48:00Z</time>
      </trkpt>
      <trkpt lat="45.63597" lon="4.59237">
        <ele>876</ele>
        <time>2019-04-22T11:48:12Z</time>
      </trkpt>
      <trkpt lat="45.63585" lon="4.59245">
        <ele>875</ele>
        <time>2019-04-22T11:48:27Z</time>
      </trkpt>
      <trkpt lat="45.63575" lon="4.59261">
        <ele>874</ele>
        <time>2019-04-22T11:48:57Z</time>
      </trkpt>
      <trkpt lat="45.63564" lon="4.59291">
        <ele>871</ele>
        <time>2019-04-22T11:49:30Z</time>
      </trkpt>
      <trkpt lat="45.63552" lon="4.59324">
        <ele>867</ele>
        <time>2019-04-22T11:50:12Z</time>
      </trkpt>
      <trkpt lat="45.63536" lon="4.59363">
        <ele>862</ele>
        <time>2019-04-22T11:50:54Z</time>
      </trkpt>
      <trkpt lat="45.63528" lon="4.59378">
        <ele>859</ele>
        <time>2019-04-22T11:51:18Z</time>
      </trkpt>
      <trkpt lat="45.63524" lon="4.59389">
        <ele>858</ele>
        <time>2019-04-22T11:51:30Z</time>
      </trkpt>
      <trkpt lat="45.63519" lon="4.59395">
        <ele>857</ele>
        <time>2019-04-22T11:51:42Z</time>
      </trkpt>
      <trkpt lat="45.63516" lon="4.59403">
        <ele>856</ele>
        <time>2019-04-22T11:51:54Z</time>
      </trkpt>
      <trkpt lat="45.6351" lon="4.59424">
        <ele>853</ele>
        <time>2019-04-22T11:52:18Z</time>
      </trkpt>
      <trkpt lat="45.63509" lon="4.59461">
        <ele>852</ele>
        <time>2019-04-22T11:52:43Z</time>
      </trkpt>
      <trkpt lat="45.63511" lon="4.59469">
        <ele>852</ele>
        <time>2019-04-22T11:52:50Z</time>
      </trkpt>
      <trkpt lat="45.63515" lon="4.59481">
        <ele>853</ele>
        <time>2019-04-22T11:53:00Z</time>
      </trkpt>
      <trkpt lat="45.63519" lon="4.59505">
        <ele>854</ele>
        <time>2019-04-22T11:53:17Z</time>
      </trkpt>
      <trkpt lat="45.63525" lon="4.59559">
        <ele>857</ele>
        <time>2019-04-22T11:53:57Z</time>
      </trkpt>
      <trkpt lat="45.63527" lon="4.59566">
        <ele>857</ele>
        <time>2019-04-22T11:54:03Z</time>
      </trkpt>
      <trkpt lat="45.63536" lon="4.59582">
        <ele>858</ele>
        <time>2019-04-22T11:54:18Z</time>
      </trkpt>
      <trkpt lat="45.63561" lon="4.59619">
        <ele>859</ele>
        <time>2019-04-22T11:54:52Z</time>
      </trkpt>
      <trkpt lat="45.6357" lon="4.59644">
        <ele>859</ele>
        <time>2019-04-22T11:55:10Z</time>
      </trkpt>
      <trkpt lat="45.63569" lon="4.59653">
        <ele>859</ele>
        <time>2019-04-22T11:55:16Z</time>
      </trkpt>
      <trkpt lat="45.63559" lon="4.59669">
        <ele>860</ele>
        <time>2019-04-22T11:55:28Z</time>
      </trkpt>
      <trkpt lat="45.6355" lon="4.59675">
        <ele>861</ele>
        <time>2019-04-22T11:55:38Z</time>
      </trkpt>
      <trkpt lat="45.63546" lon="4.59677">
        <ele>861</ele>
        <time>2019-04-22T11:55:43Z</time>
      </trkpt>
      <trkpt lat="45.63534" lon="4.59679">
        <ele>863</ele>
        <time>2019-04-22T11:55:57Z</time>
      </trkpt>
      <trkpt lat="45.63523" lon="4.59676">
        <ele>864</ele>
        <time>2019-04-22T11:56:09Z</time>
      </trkpt>
      <trkpt lat="45.6351" lon="4.59672">
        <ele>864</ele>
        <time>2019-04-22T11:56:23Z</time>
      </trkpt>
      <trkpt lat="45.63498" lon="4.59665">
        <ele>865</ele>
        <time>2019-04-22T11:56:36Z</time>
      </trkpt>
      <trkpt lat="45.63466" lon="4.59658">
        <ele>865</ele>
        <time>2019-04-22T11:57:07Z</time>
      </trkpt>
      <trkpt lat="45.63435" lon="4.59659">
        <ele>866</ele>
        <time>2019-04-22T11:57:38Z</time>
      </trkpt>
      <trkpt lat="45.634" lon="4.59662">
        <ele>868</ele>
        <time>2019-04-22T11:58:12Z</time>
      </trkpt>
      <trkpt lat="45.63383" lon="4.59665">
        <ele>869</ele>
        <time>2019-04-22T11:58:29Z</time>
      </trkpt>
      <trkpt lat="45.63368" lon="4.59666">
        <ele>869</ele>
        <time>2019-04-22T11:58:42Z</time>
      </trkpt>
      <trkpt lat="45.63347" lon="4.59665">
        <ele>869</ele>
        <time>2019-04-22T11:59:02Z</time>
      </trkpt>
      <trkpt lat="45.63343" lon="4.59665">
        <ele>869</ele>
        <time>2019-04-22T11:59:06Z</time>
      </trkpt>
      <trkpt lat="45.63308" lon="4.59666">
        <ele>869</ele>
        <time>2019-04-22T11:59:38Z</time>
      </trkpt>
      <trkpt lat="45.63271" lon="4.59674">
        <ele>870</ele>
        <time>2019-04-22T12:00:16Z</time>
      </trkpt>
      <trkpt lat="45.63261" lon="4.59677">
        <ele>871</ele>
        <time>2019-04-22T12:00:26Z</time>
      </trkpt>
      <trkpt lat="45.63226" lon="4.59684">
        <ele>872</ele>
        <time>2019-04-22T12:00:58Z</time>
      </trkpt>
      <trkpt lat="45.63193" lon="4.59693">
        <ele>872</ele>
        <time>2019-04-22T12:01:29Z</time>
      </trkpt>
      <trkpt lat="45.63158" lon="4.59691">
        <ele>873</ele>
        <time>2019-04-22T12:02:04Z</time>
      </trkpt>
      <trkpt lat="45.63122" lon="4.59687">
        <ele>871</ele>
        <time>2019-04-22T12:02:37Z</time>
      </trkpt>
      <trkpt lat="45.63113" lon="4.59695">
        <ele>871</ele>
        <time>2019-04-22T12:02:46Z</time>
      </trkpt>
      <trkpt lat="45.63101" lon="4.59718">
        <ele>869</ele>
        <time>2019-04-22T12:03:04Z</time>
      </trkpt>
      <trkpt lat="45.63087" lon="4.59757">
        <ele>866</ele>
        <time>2019-04-22T12:03:32Z</time>
      </trkpt>
      <trkpt lat="45.63082" lon="4.59759">
        <ele>866</ele>
        <time>2019-04-22T12:03:43Z</time>
      </trkpt>
      <trkpt lat="45.63081" lon="4.59767">
        <ele>866</ele>
        <time>2019-04-22T12:04:35Z</time>
      </trkpt>
      <trkpt lat="45.63077" lon="4.59781">
        <ele>866</ele>
        <time>2019-04-22T12:04:47Z</time>
      </trkpt>
      <trkpt lat="45.63047" lon="4.59822">
        <ele>862</ele>
        <time>2019-04-22T12:05:19Z</time>
      </trkpt>
      <trkpt lat="45.63042" lon="4.59835">
        <ele>861</ele>
        <time>2019-04-22T12:05:27Z</time>
      </trkpt>
      <trkpt lat="45.63028" lon="4.5988">
        <ele>857</ele>
        <time>2019-04-22T12:05:58Z</time>
      </trkpt>
      <trkpt lat="45.63026" lon="4.59887">
        <ele>856</ele>
        <time>2019-04-22T12:06:03Z</time>
      </trkpt>
      <trkpt lat="45.6302" lon="4.59899">
        <ele>855</ele>
        <time>2019-04-22T12:06:13Z</time>
      </trkpt>
      <trkpt lat="45.63012" lon="4.59949">
        <ele>852</ele>
        <time>2019-04-22T12:06:46Z</time>
      </trkpt>
      <trkpt lat="45.63005" lon="4.59975">
        <ele>851</ele>
        <time>2019-04-22T12:07:06Z</time>
      </trkpt>
      <trkpt lat="45.62992" lon="4.60012">
        <ele>847</ele>
        <time>2019-04-22T12:07:36Z</time>
      </trkpt>
      <trkpt lat="45.62984" lon="4.60028">
        <ele>846</ele>
        <time>2019-04-22T12:07:49Z</time>
      </trkpt>
      <trkpt lat="45.62975" lon="4.60036">
        <ele>846</ele>
        <time>2019-04-22T12:07:59Z</time>
      </trkpt>
      <trkpt lat="45.62968" lon="4.60042">
        <ele>845</ele>
        <time>2019-04-22T12:08:07Z</time>
      </trkpt>
      <trkpt lat="45.62964" lon="4.60041">
        <ele>845</ele>
        <time>2019-04-22T12:08:11Z</time>
      </trkpt>
      <trkpt lat="45.62959" lon="4.60037">
        <ele>845</ele>
        <time>2019-04-22T12:08:16Z</time>
      </trkpt>
      <trkpt lat="45.62955" lon="4.60032">
        <ele>845</ele>
        <time>2019-04-22T12:08:20Z</time>
      </trkpt>
      <trkpt lat="45.62952" lon="4.60026">
        <ele>844</ele>
        <time>2019-04-22T12:08:25Z</time>
      </trkpt>
      <trkpt lat="45.62937" lon="4.60013">
        <ele>844</ele>
        <time>2019-04-22T12:08:44Z</time>
      </trkpt>
      <trkpt lat="45.62929" lon="4.60007">
        <ele>843</ele>
        <time>2019-04-22T12:08:55Z</time>
      </trkpt>
      <trkpt lat="45.62925" lon="4.60002">
        <ele>843</ele>
        <time>2019-04-22T12:09:00Z</time>
      </trkpt>
      <trkpt lat="45.62917" lon="4.59996">
        <ele>842</ele>
        <time>2019-04-22T12:09:09Z</time>
      </trkpt>
      <trkpt lat="45.62893" lon="4.59988">
        <ele>840</ele>
        <time>2019-04-22T12:09:35Z</time>
      </trkpt>
      <trkpt lat="45.62887" lon="4.59986">
        <ele>840</ele>
        <time>2019-04-22T12:09:40Z</time>
      </trkpt>
      <trkpt lat="45.62882" lon="4.59988">
        <ele>840</ele>
        <time>2019-04-22T12:09:45Z</time>
      </trkpt>
      <trkpt lat="45.62872" lon="4.59987">
        <ele>839</ele>
        <time>2019-04-22T12:09:56Z</time>
      </trkpt>
      <trkpt lat="45.62852" lon="4.59987">
        <ele>839</ele>
        <time>2019-04-22T12:10:15Z</time>
      </trkpt>
      <trkpt lat="45.62842" lon="4.59989">
        <ele>838</ele>
        <time>2019-04-22T12:10:24Z</time>
      </trkpt>
      <trkpt lat="45.62808" lon="4.59988">
        <ele>837</ele>
        <time>2019-04-22T12:10:55Z</time>
      </trkpt>
      <trkpt lat="45.62773" lon="4.59989">
        <ele>835</ele>
        <time>2019-04-22T12:11:27Z</time>
      </trkpt>
      <trkpt lat="45.62749" lon="4.59987">
        <ele>833</ele>
        <time>2019-04-22T12:11:48Z</time>
      </trkpt>
      <trkpt lat="45.62714" lon="4.59989">
        <ele>831</ele>
        <time>2019-04-22T12:12:20Z</time>
      </trkpt>
      <trkpt lat="45.62679" lon="4.59989">
        <ele>830</ele>
        <time>2019-04-22T12:12:53Z</time>
      </trkpt>
      <trkpt lat="45.62643" lon="4.59989">
        <ele>829</ele>
        <time>2019-04-22T12:13:25Z</time>
      </trkpt>
      <trkpt lat="45.62608" lon="4.59992">
        <ele>829</ele>
        <time>2019-04-22T12:13:56Z</time>
      </trkpt>
      <trkpt lat="45.62573" lon="4.60004">
        <ele>829</ele>
        <time>2019-04-22T12:14:29Z</time>
      </trkpt>
      <trkpt lat="45.62539" lon="4.60016">
        <ele>829</ele>
        <time>2019-04-22T12:15:02Z</time>
      </trkpt>
      <trkpt lat="45.6253" lon="4.60023">
        <ele>829</ele>
        <time>2019-04-22T12:15:12Z</time>
      </trkpt>
      <trkpt lat="45.62496" lon="4.60037">
        <ele>829</ele>
        <time>2019-04-22T12:15:44Z</time>
      </trkpt>
      <trkpt lat="45.62475" lon="4.6004">
        <ele>829</ele>
        <time>2019-04-22T12:16:03Z</time>
      </trkpt>
      <trkpt lat="45.6245" lon="4.60033">
        <ele>828</ele>
        <time>2019-04-22T12:16:26Z</time>
      </trkpt>
      <trkpt lat="45.62446" lon="4.60031">
        <ele>828</ele>
        <time>2019-04-22T12:16:30Z</time>
      </trkpt>
      <trkpt lat="45.62415" lon="4.6">
        <ele>827</ele>
        <time>2019-04-22T12:17:04Z</time>
      </trkpt>
      <trkpt lat="45.62387" lon="4.59968">
        <ele>826</ele>
        <time>2019-04-22T12:17:37Z</time>
      </trkpt>
      <trkpt lat="45.62375" lon="4.59957">
        <ele>827</ele>
        <time>2019-04-22T12:17:49Z</time>
      </trkpt>
      <trkpt lat="45.62368" lon="4.59949">
        <ele>826</ele>
        <time>2019-04-22T12:19:58Z</time>
      </trkpt>
      <trkpt lat="45.62346" lon="4.59928">
        <ele>827</ele>
        <time>2019-04-22T12:20:33Z</time>
      </trkpt>
      <trkpt lat="45.62324" lon="4.59894">
        <ele>828</ele>
        <time>2019-04-22T12:21:05Z</time>
      </trkpt>
      <trkpt lat="45.62317" lon="4.59883">
        <ele>829</ele>
        <time>2019-04-22T12:21:15Z</time>
      </trkpt>
      <trkpt lat="45.62313" lon="4.5987">
        <ele>830</ele>
        <time>2019-04-22T12:21:25Z</time>
      </trkpt>
      <trkpt lat="45.62299" lon="4.59848">
        <ele>831</ele>
        <time>2019-04-22T12:21:47Z</time>
      </trkpt>
      <trkpt lat="45.62297" lon="4.59842">
        <ele>831</ele>
        <time>2019-04-22T12:22:54Z</time>
      </trkpt>
      <trkpt lat="45.62293" lon="4.59837">
        <ele>831</ele>
        <time>2019-04-22T12:22:59Z</time>
      </trkpt>
      <trkpt lat="45.62285" lon="4.59828">
        <ele>832</ele>
        <time>2019-04-22T12:23:12Z</time>
      </trkpt>
      <trkpt lat="45.62265" lon="4.59794">
        <ele>834</ele>
        <time>2019-04-22T12:23:45Z</time>
      </trkpt>
      <trkpt lat="45.62245" lon="4.59766">
        <ele>836</ele>
        <time>2019-04-22T12:24:15Z</time>
      </trkpt>
      <trkpt lat="45.62226" lon="4.59728">
        <ele>838</ele>
        <time>2019-04-22T12:24:47Z</time>
      </trkpt>
      <trkpt lat="45.62223" lon="4.59713">
        <ele>838</ele>
        <time>2019-04-22T12:24:57Z</time>
      </trkpt>
      <trkpt lat="45.62223" lon="4.59692">
        <ele>839</ele>
        <time>2019-04-22T12:25:10Z</time>
      </trkpt>
      <trkpt lat="45.62225" lon="4.59657">
        <ele>841</ele>
        <time>2019-04-22T12:25:32Z</time>
      </trkpt>
      <trkpt lat="45.6222" lon="4.59612">
        <ele>842</ele>
        <time>2019-04-22T12:26:01Z</time>
      </trkpt>
      <trkpt lat="45.62211" lon="4.59568">
        <ele>845</ele>
        <time>2019-04-22T12:26:33Z</time>
      </trkpt>
      <trkpt lat="45.62198" lon="4.59523">
        <ele>848</ele>
        <time>2019-04-22T12:27:09Z</time>
      </trkpt>
      <trkpt lat="45.62183" lon="4.59497">
        <ele>851</ele>
        <time>2019-04-22T12:27:34Z</time>
      </trkpt>
      <trkpt lat="45.62174" lon="4.59485">
        <ele>852</ele>
        <time>2019-04-22T12:27:47Z</time>
      </trkpt>
      <trkpt lat="45.62167" lon="4.59476">
        <ele>852</ele>
        <time>2019-04-22T12:28:43Z</time>
      </trkpt>
      <trkpt lat="45.62155" lon="4.59465">
        <ele>854</ele>
        <time>2019-04-22T12:29:00Z</time>
      </trkpt>
      <trkpt lat="45.62131" lon="4.59437">
        <ele>856</ele>
        <time>2019-04-22T12:29:31Z</time>
      </trkpt>
      <trkpt lat="45.62105" lon="4.59408">
        <ele>859</ele>
        <time>2019-04-22T12:30:05Z</time>
      </trkpt>
      <trkpt lat="45.62078" lon="4.59381">
        <ele>862</ele>
        <time>2019-04-22T12:30:40Z</time>
      </trkpt>
      <trkpt lat="45.62068" lon="4.59371">
        <ele>862</ele>
        <time>2019-04-22T12:30:52Z</time>
      </trkpt>
      <trkpt lat="45.62058" lon="4.59362">
        <ele>862</ele>
        <time>2019-04-22T12:31:05Z</time>
      </trkpt>
      <trkpt lat="45.62054" lon="4.59357">
        <ele>863</ele>
        <time>2019-04-22T12:31:12Z</time>
      </trkpt>
      <trkpt lat="45.62041" lon="4.59348">
        <ele>864</ele>
        <time>2019-04-22T12:31:27Z</time>
      </trkpt>
      <trkpt lat="45.62008" lon="4.59334">
        <ele>865</ele>
        <time>2019-04-22T12:31:57Z</time>
      </trkpt>
      <trkpt lat="45.61998" lon="4.59329">
        <ele>866</ele>
        <time>2019-04-22T12:32:05Z</time>
      </trkpt>
      <trkpt lat="45.61994" lon="4.59328">
        <ele>866</ele>
        <time>2019-04-22T12:32:10Z</time>
      </trkpt>
      <trkpt lat="45.61988" lon="4.59331">
        <ele>866</ele>
        <time>2019-04-22T12:32:24Z</time>
      </trkpt>
      <trkpt lat="45.6197" lon="4.5934">
        <ele>866</ele>
        <time>2019-04-22T12:32:45Z</time>
      </trkpt>
      <trkpt lat="45.61961" lon="4.59345">
        <ele>866</ele>
        <time>2019-04-22T12:32:55Z</time>
      </trkpt>
      <trkpt lat="45.61956" lon="4.59347">
        <ele>866</ele>
        <time>2019-04-22T12:33:00Z</time>
      </trkpt>
      <trkpt lat="45.61938" lon="4.59355">
        <ele>865</ele>
        <time>2019-04-22T12:33:20Z</time>
      </trkpt>
      <trkpt lat="45.61908" lon="4.59353">
        <ele>861</ele>
        <time>2019-04-22T12:34:09Z</time>
      </trkpt>
      <trkpt lat="45.61896" lon="4.59355">
        <ele>860</ele>
        <time>2019-04-22T12:34:27Z</time>
      </trkpt>
      <trkpt lat="45.61888" lon="4.59358">
        <ele>859</ele>
        <time>2019-04-22T12:34:40Z</time>
      </trkpt>
      <trkpt lat="45.61883" lon="4.59355">
        <ele>859</ele>
        <time>2019-04-22T12:35:06Z</time>
      </trkpt>
      <trkpt lat="45.61873" lon="4.59358">
        <ele>857</ele>
        <time>2019-04-22T12:35:16Z</time>
      </trkpt>
      <trkpt lat="45.61869" lon="4.59359">
        <ele>857</ele>
        <time>2019-04-22T12:35:36Z</time>
      </trkpt>
      <trkpt lat="45.61832" lon="4.59361">
        <ele>856</ele>
        <time>2019-04-22T12:36:09Z</time>
      </trkpt>
      <trkpt lat="45.61812" lon="4.59364">
        <ele>855</ele>
        <time>2019-04-22T12:36:29Z</time>
      </trkpt>
      <trkpt lat="45.61772" lon="4.59356">
        <ele>855</ele>
        <time>2019-04-22T12:37:03Z</time>
      </trkpt>
      <trkpt lat="45.61757" lon="4.59353">
        <ele>854</ele>
        <time>2019-04-22T12:37:17Z</time>
      </trkpt>
      <trkpt lat="45.61752" lon="4.59354">
        <ele>854</ele>
        <time>2019-04-22T12:37:22Z</time>
      </trkpt>
      <trkpt lat="45.61724" lon="4.59346">
        <ele>854</ele>
        <time>2019-04-22T12:37:53Z</time>
      </trkpt>
      <trkpt lat="45.61692" lon="4.59339">
        <ele>855</ele>
        <time>2019-04-22T12:38:23Z</time>
      </trkpt>
      <trkpt lat="45.61673" lon="4.59336">
        <ele>855</ele>
        <time>2019-04-22T12:38:40Z</time>
      </trkpt>
      <trkpt lat="45.61655" lon="4.59336">
        <ele>855</ele>
        <time>2019-04-22T12:38:56Z</time>
      </trkpt>
      <trkpt lat="45.61619" lon="4.59333">
        <ele>855</ele>
        <time>2019-04-22T12:39:31Z</time>
      </trkpt>
      <trkpt lat="45.61594" lon="4.59331">
        <ele>856</ele>
        <time>2019-04-22T12:39:54Z</time>
      </trkpt>
      <trkpt lat="45.61563" lon="4.59324">
        <ele>854</ele>
        <time>2019-04-22T12:40:28Z</time>
      </trkpt>
      <trkpt lat="45.61533" lon="4.59316">
        <ele>852</ele>
        <time>2019-04-22T12:41:01Z</time>
      </trkpt>
      <trkpt lat="45.61528" lon="4.59314">
        <ele>851</ele>
        <time>2019-04-22T12:41:06Z</time>
      </trkpt>
      <trkpt lat="45.61517" lon="4.59316">
        <ele>850</ele>
        <time>2019-04-22T12:41:18Z</time>
      </trkpt>
      <trkpt lat="45.61493" lon="4.59314">
        <ele>848</ele>
        <time>2019-04-22T12:41:45Z</time>
      </trkpt>
      <trkpt lat="45.61481" lon="4.59315">
        <ele>847</ele>
        <time>2019-04-22T12:41:58Z</time>
      </trkpt>
      <trkpt lat="45.6145" lon="4.59311">
        <ele>844</ele>
        <time>2019-04-22T12:42:38Z</time>
      </trkpt>
      <trkpt lat="45.61445" lon="4.59308">
        <ele>843</ele>
        <time>2019-04-22T12:42:42Z</time>
      </trkpt>
      <trkpt lat="45.61417" lon="4.59304">
        <ele>842</ele>
        <time>2019-04-22T12:43:11Z</time>
      </trkpt>
      <trkpt lat="45.61399" lon="4.59297">
        <ele>840</ele>
        <time>2019-04-22T12:43:32Z</time>
      </trkpt>
      <trkpt lat="45.61385" lon="4.59296">
        <ele>839</ele>
        <time>2019-04-22T12:43:48Z</time>
      </trkpt>
      <trkpt lat="45.61377" lon="4.5929">
        <ele>838</ele>
        <time>2019-04-22T12:43:57Z</time>
      </trkpt>
      <trkpt lat="45.61373" lon="4.59288">
        <ele>838</ele>
        <time>2019-04-22T12:44:01Z</time>
      </trkpt>
      <trkpt lat="45.61356" lon="4.5928">
        <ele>838</ele>
        <time>2019-04-22T12:44:17Z</time>
      </trkpt>
      <trkpt lat="45.61337" lon="4.59275">
        <ele>836</ele>
        <time>2019-04-22T12:44:39Z</time>
      </trkpt>
      <trkpt lat="45.61304" lon="4.59264">
        <ele>833</ele>
        <time>2019-04-22T12:45:17Z</time>
      </trkpt>
      <trkpt lat="45.6128" lon="4.59254">
        <ele>829</ele>
        <time>2019-04-22T12:45:47Z</time>
      </trkpt>
      <trkpt lat="45.61253" lon="4.59248">
        <ele>825</ele>
        <time>2019-04-22T12:46:21Z</time>
      </trkpt>
      <trkpt lat="45.61246" lon="4.59251">
        <ele>824</ele>
        <time>2019-04-22T12:46:30Z</time>
      </trkpt>
      <trkpt lat="45.61234" lon="4.59248">
        <ele>821</ele>
        <time>2019-04-22T12:46:47Z</time>
      </trkpt>
      <trkpt lat="45.61231" lon="4.59243">
        <ele>820</ele>
        <time>2019-04-22T12:46:52Z</time>
      </trkpt>
      <trkpt lat="45.6122" lon="4.59235">
        <ele>819</ele>
        <time>2019-04-22T12:47:08Z</time>
      </trkpt>
      <trkpt lat="45.61212" lon="4.59224">
        <ele>817</ele>
        <time>2019-04-22T12:47:24Z</time>
      </trkpt>
      <trkpt lat="45.61205" lon="4.59218">
        <ele>816</ele>
        <time>2019-04-22T12:47:33Z</time>
      </trkpt>
      <trkpt lat="45.61201" lon="4.59213">
        <ele>815</ele>
        <time>2019-04-22T12:47:41Z</time>
      </trkpt>
      <trkpt lat="45.61192" lon="4.59203">
        <ele>813</ele>
        <time>2019-04-22T12:47:55Z</time>
      </trkpt>
      <trkpt lat="45.61175" lon="4.59179">
        <ele>810</ele>
        <time>2019-04-22T12:48:24Z</time>
      </trkpt>
      <trkpt lat="45.61163" lon="4.59167">
        <ele>808</ele>
        <time>2019-04-22T12:48:39Z</time>
      </trkpt>
      <trkpt lat="45.61143" lon="4.5914">
        <ele>805</ele>
        <time>2019-04-22T12:49:13Z</time>
      </trkpt>
      <trkpt lat="45.61129" lon="4.59123">
        <ele>802</ele>
        <time>2019-04-22T12:49:43Z</time>
      </trkpt>
      <trkpt lat="45.61123" lon="4.59119">
        <ele>801</ele>
        <time>2019-04-22T12:49:52Z</time>
      </trkpt>
      <trkpt lat="45.61112" lon="4.59117">
        <ele>800</ele>
        <time>2019-04-22T12:50:08Z</time>
      </trkpt>
      <trkpt lat="45.6108" lon="4.59099">
        <ele>795</ele>
        <time>2019-04-22T12:50:46Z</time>
      </trkpt>
      <trkpt lat="45.61064" lon="4.59077">
        <ele>792</ele>
        <time>2019-04-22T12:51:17Z</time>
      </trkpt>
      <trkpt lat="45.61054" lon="4.59066">
        <ele>791</ele>
        <time>2019-04-22T12:51:31Z</time>
      </trkpt>
      <trkpt lat="45.61043" lon="4.59061">
        <ele>789</ele>
        <time>2019-04-22T12:52:15Z</time>
      </trkpt>
      <trkpt lat="45.61033" lon="4.59055">
        <ele>788</ele>
        <time>2019-04-22T12:52:29Z</time>
      </trkpt>
      <trkpt lat="45.61007" lon="4.5905">
        <ele>785</ele>
        <time>2019-04-22T12:53:00Z</time>
      </trkpt>
      <trkpt lat="45.60977" lon="4.59044">
        <ele>783</ele>
        <time>2019-04-22T12:53:33Z</time>
      </trkpt>
      <trkpt lat="45.60962" lon="4.59042">
        <ele>782</ele>
        <time>2019-04-22T12:53:48Z</time>
      </trkpt>
      <trkpt lat="45.60956" lon="4.59042">
        <ele>781</ele>
        <time>2019-04-22T12:53:56Z</time>
      </trkpt>
      <trkpt lat="45.60922" lon="4.59032">
        <ele>778</ele>
        <time>2019-04-22T12:54:31Z</time>
      </trkpt>
      <trkpt lat="45.60905" lon="4.59026">
        <ele>776</ele>
        <time>2019-04-22T12:54:50Z</time>
      </trkpt>
      <trkpt lat="45.60874" lon="4.59023">
        <ele>773</ele>
        <time>2019-04-22T12:55:23Z</time>
      </trkpt>
      <trkpt lat="45.60856" lon="4.5903">
        <ele>771</ele>
        <time>2019-04-22T12:55:44Z</time>
      </trkpt>
      <trkpt lat="45.60852" lon="4.59027">
        <ele>771</ele>
        <time>2019-04-22T12:55:50Z</time>
      </trkpt>
      <trkpt lat="45.60845" lon="4.59013">
        <ele>770</ele>
        <time>2019-04-22T12:56:01Z</time>
      </trkpt>
      <trkpt lat="45.60842" lon="4.59009">
        <ele>770</ele>
        <time>2019-04-22T12:56:05Z</time>
      </trkpt>
      <trkpt lat="45.60821" lon="4.58996">
        <ele>768</ele>
        <time>2019-04-22T12:56:27Z</time>
      </trkpt>
      <trkpt lat="45.60816" lon="4.58995">
        <ele>768</ele>
        <time>2019-04-22T12:56:32Z</time>
      </trkpt>
      <trkpt lat="45.6081" lon="4.58995">
        <ele>767</ele>
        <time>2019-04-22T12:56:39Z</time>
      </trkpt>
      <trkpt lat="45.60805" lon="4.58994">
        <ele>767</ele>
        <time>2019-04-22T12:56:44Z</time>
      </trkpt>
      <trkpt lat="45.60784" lon="4.58992">
        <ele>767</ele>
        <time>2019-04-22T12:57:01Z</time>
      </trkpt>
      <trkpt lat="45.60751" lon="4.58997">
        <ele>766</ele>
        <time>2019-04-22T12:57:32Z</time>
      </trkpt>
      <trkpt lat="45.60721" lon="4.58995">
        <ele>768</ele>
        <time>2019-04-22T12:57:59Z</time>
      </trkpt>
      <trkpt lat="45.60694" lon="4.58986">
        <ele>768</ele>
        <time>2019-04-22T12:58:26Z</time>
      </trkpt>
      <trkpt lat="45.6067" lon="4.58985">
        <ele>769</ele>
        <time>2019-04-22T12:58:49Z</time>
      </trkpt>
      <trkpt lat="45.60646" lon="4.58976">
        <ele>769</ele>
        <time>2019-04-22T12:59:12Z</time>
      </trkpt>
      <trkpt lat="45.60636" lon="4.58975">
        <ele>769</ele>
        <time>2019-04-22T12:59:21Z</time>
      </trkpt>
      <trkpt lat="45.60601" lon="4.58963">
        <ele>770</ele>
        <time>2019-04-22T12:59:54Z</time>
      </trkpt>
      <trkpt lat="45.60581" lon="4.58951">
        <ele>770</ele>
        <time>2019-04-22T13:00:15Z</time>
      </trkpt>
      <trkpt lat="45.60576" lon="4.5895">
        <ele>769</ele>
        <time>2019-04-22T13:00:20Z</time>
      </trkpt>
      <trkpt lat="45.60556" lon="4.58939">
        <ele>767</ele>
        <time>2019-04-22T13:00:40Z</time>
      </trkpt>
      <trkpt lat="45.60543" lon="4.58936">
        <ele>766</ele>
        <time>2019-04-22T13:00:54Z</time>
      </trkpt>
      <trkpt lat="45.6052" lon="4.58933">
        <ele>763</ele>
        <time>2019-04-22T13:01:19Z</time>
      </trkpt>
      <trkpt lat="45.60505" lon="4.58929">
        <ele>761</ele>
        <time>2019-04-22T13:01:35Z</time>
      </trkpt>
      <trkpt lat="45.60484" lon="4.58934">
        <ele>759</ele>
        <time>2019-04-22T13:01:57Z</time>
      </trkpt>
      <trkpt lat="45.60458" lon="4.58942">
        <ele>757</ele>
        <time>2019-04-22T13:02:22Z</time>
      </trkpt>
      <trkpt lat="45.60442" lon="4.58942">
        <ele>756</ele>
        <time>2019-04-22T13:02:37Z</time>
      </trkpt>
      <trkpt lat="45.60432" lon="4.58945">
        <ele>755</ele>
        <time>2019-04-22T13:02:47Z</time>
      </trkpt>
      <trkpt lat="45.60416" lon="4.58943">
        <ele>752</ele>
        <time>2019-04-22T13:03:06Z</time>
      </trkpt>
      <trkpt lat="45.60397" lon="4.58954">
        <ele>749</ele>
        <time>2019-04-22T13:04:00Z</time>
      </trkpt>
      <trkpt lat="45.60389" lon="4.58961">
        <ele>748</ele>
        <time>2019-04-22T13:04:12Z</time>
      </trkpt>
      <trkpt lat="45.60383" lon="4.58959">
        <ele>747</ele>
        <time>2019-04-22T13:04:59Z</time>
      </trkpt>
      <trkpt lat="45.60378" lon="4.58957">
        <ele>747</ele>
        <time>2019-04-22T13:05:06Z</time>
      </trkpt>
      <trkpt lat="45.60373" lon="4.58958">
        <ele>746</ele>
        <time>2019-04-22T13:05:10Z</time>
      </trkpt>
      <trkpt lat="45.60368" lon="4.58954">
        <ele>746</ele>
        <time>2019-04-22T13:05:15Z</time>
      </trkpt>
      <trkpt lat="45.60337" lon="4.58958">
        <ele>742</ele>
        <time>2019-04-22T13:05:47Z</time>
      </trkpt>
      <trkpt lat="45.60312" lon="4.58955">
        <ele>738</ele>
        <time>2019-04-22T13:06:29Z</time>
      </trkpt>
      <trkpt lat="45.60305" lon="4.58951">
        <ele>737</ele>
        <time>2019-04-22T13:06:55Z</time>
      </trkpt>
      <trkpt lat="45.60293" lon="4.58947">
        <ele>735</ele>
        <time>2019-04-22T13:07:16Z</time>
      </trkpt>
      <trkpt lat="45.60289" lon="4.58943">
        <ele>734</ele>
        <time>2019-04-22T13:07:22Z</time>
      </trkpt>
      <trkpt lat="45.60284" lon="4.58942">
        <ele>733</ele>
        <time>2019-04-22T13:07:27Z</time>
      </trkpt>
      <trkpt lat="45.6028" lon="4.58942">
        <ele>732</ele>
        <time>2019-04-22T13:07:34Z</time>
      </trkpt>
      <trkpt lat="45.60272" lon="4.58947">
        <ele>731</ele>
        <time>2019-04-22T13:07:45Z</time>
      </trkpt>
      <trkpt lat="45.60269" lon="4.58942">
        <ele>730</ele>
        <time>2019-04-22T13:08:12Z</time>
      </trkpt>
      <trkpt lat="45.60252" lon="4.58937">
        <ele>728</ele>
        <time>2019-04-22T13:08:50Z</time>
      </trkpt>
      <trkpt lat="45.60222" lon="4.58922">
        <ele>723</ele>
        <time>2019-04-22T13:09:30Z</time>
      </trkpt>
      <trkpt lat="45.60212" lon="4.58915">
        <ele>722</ele>
        <time>2019-04-22T13:09:42Z</time>
      </trkpt>
      <trkpt lat="45.60204" lon="4.58912">
        <ele>722</ele>
        <time>2019-04-22T13:10:00Z</time>
      </trkpt>
      <trkpt lat="45.60199" lon="4.58909">
        <ele>721</ele>
        <time>2019-04-22T13:10:04Z</time>
      </trkpt>
      <trkpt lat="45.60171" lon="4.58906">
        <ele>719</ele>
        <time>2019-04-22T13:10:36Z</time>
      </trkpt>
      <trkpt lat="45.6015" lon="4.58905">
        <ele>717</ele>
        <time>2019-04-22T13:10:55Z</time>
      </trkpt>
      <trkpt lat="45.6014" lon="4.58908">
        <ele>716</ele>
        <time>2019-04-22T13:11:06Z</time>
      </trkpt>
      <trkpt lat="45.6014" lon="4.589">
        <ele>716</ele>
        <time>2019-04-22T13:11:14Z</time>
      </trkpt>
      <trkpt lat="45.60134" lon="4.58902">
        <ele>716</ele>
        <time>2019-04-22T13:11:33Z</time>
      </trkpt>
      <trkpt lat="45.60126" lon="4.58894">
        <ele>717</ele>
        <time>2019-04-22T13:13:03Z</time>
      </trkpt>
      <trkpt lat="45.60124" lon="4.589">
        <ele>717</ele>
        <time>2019-04-22T13:13:16Z</time>
      </trkpt>
      <trkpt lat="45.6013" lon="4.58901">
        <ele>717</ele>
        <time>2019-04-22T13:13:57Z</time>
      </trkpt>
    </trkseg>
  </trk>
</gpx>